Wetterdaten: Donnerstag, 30.05.2013
Datum Zeit Temp. Aussen +5cm Feuchte Auss Luftdruck Regen Sonnenschein Regendauer UV Solar Windben
30.05.2013 00:00 9,4 C 8,4 C 98 % 1003,9 hPa 0,0 l/m 0 min 2 min 0,0 UV-I 0 W/m 0,0 km/h (0 Bft)
30.05.2013 00:02 9,4 C 8,4 C 98 % 1003,9 hPa 0,0 l/m 0 min 2 min 0,0 UV-I 0 W/m 0,0 km/h (0 Bft)
30.05.2013 00:06 9,4 C 8,4 C 98 % 1003,9 hPa 0,0 l/m 0 min 2 min 0,0 UV-I 0 W/m 5,1 km/h (1 Bft)
30.05.2013 00:08 9,4 C 8,4 C 98 % 1003,9 hPa 0,0 l/m 0 min 2 min 0,0 UV-I 0 W/m 0,0 km/h (0 Bft)
30.05.2013 00:10 9,4 C 8,4 C 98 % 1003,9 hPa 0,2 l/m 0 min 2 min 0,0 UV-I 0 W/m 5,1 km/h (1 Bft)
30.05.2013 00:12 9,4 C 8,4 C 98 % 1003,9 hPa 0,0 l/m 0 min 2 min 0,0 UV-I 0 W/m 2,6 km/h (1 Bft)
30.05.2013 00:14 9,4 C 8,4 C 98 % 1004,0 hPa 0,0 l/m 0 min 2 min 0,0 UV-I 0 W/m 0,0 km/h (0 Bft)
30.05.2013 00:16 9,4 C 8,4 C 98 % 1003,9 hPa 0,0 l/m 0 min 2 min 0,0 UV-I 0 W/m 0,0 km/h (0 Bft)
30.05.2013 00:18 9,4 C 8,4 C 98 % 1004,0 hPa 0,0 l/m 0 min 2 min 0,0 UV-I 0 W/m 0,0 km/h (0 Bft)
30.05.2013 00:20 9,4 C 8,4 C 98 % 1003,9 hPa 0,0 l/m 0 min 2 min 0,0 UV-I 0 W/m 5,1 km/h (1 Bft)
30.05.2013 00:22 9,4 C 8,4 C 98 % 1003,9 hPa 0,0 l/m 0 min 2 min 0,0 UV-I 0 W/m 7,7 km/h (2 Bft)
30.05.2013 00:24 9,4 C 8,4 C 98 % 1003,9 hPa 0,0 l/m 0 min 2 min 0,0 UV-I 0 W/m 2,6 km/h (1 Bft)
30.05.2013 00:26 9,4 C 8,4 C 98 % 1004,0 hPa 0,0 l/m 0 min 2 min 0,0 UV-I 0 W/m 0,0 km/h (0 Bft)
30.05.2013 00:28 9,4 C 8,4 C 98 % 1004,1 hPa 0,0 l/m 0 min 2 min 0,0 UV-I 0 W/m 0,0 km/h (0 Bft)
30.05.2013 00:30 9,4 C 8,4 C 98 % 1004,1 hPa 0,2 l/m 0 min 2 min 0,0 UV-I 0 W/m 0,0 km/h (0 Bft)
30.05.2013 00:32 9,4 C 8,4 C 98 % 1004,1 hPa 0,0 l/m 0 min 2 min 0,0 UV-I 0 W/m 0,0 km/h (0 Bft)
30.05.2013 00:34 9,4 C 8,4 C 98 % 1004,1 hPa 0,0 l/m 0 min 2 min 0,0 UV-I 0 W/m 0,0 km/h (0 Bft)
30.05.2013 00:36 9,4 C 8,4 C 98 % 1004,0 hPa 0,0 l/m 0 min 2 min 0,0 UV-I 0 W/m 0,0 km/h (0 Bft)
30.05.2013 00:38 9,4 C 8,4 C 98 % 1004,0 hPa 0,0 l/m 0 min 2 min 0,0 UV-I 0 W/m 2,6 km/h (1 Bft)
30.05.2013 00:40 9,4 C 8,4 C 98 % 1004,0 hPa 0,0 l/m 0 min 2 min 0,0 UV-I 0 W/m 0,0 km/h (0 Bft)
30.05.2013 00:42 9,4 C 8,4 C 98 % 1004,0 hPa 0,0 l/m 0 min 2 min 0,0 UV-I 0 W/m 0,0 km/h (0 Bft)
30.05.2013 00:44 9,4 C 8,4 C 98 % 1004,0 hPa 0,0 l/m 0 min 2 min 0,0 UV-I 0 W/m 0,0 km/h (0 Bft)
30.05.2013 00:46 9,4 C 8,4 C 98 % 1004,0 hPa 0,0 l/m 0 min 2 min 0,0 UV-I 0 W/m 0,0 km/h (0 Bft)
30.05.2013 00:48 9,4 C 8,4 C 98 % 1004,1 hPa 0,0 l/m 0 min 2 min 0,0 UV-I 0 W/m 0,0 km/h (0 Bft)
30.05.2013 00:50 9,4 C 8,4 C 98 % 1004,1 hPa 0,2 l/m 0 min 2 min 0,0 UV-I 0 W/m 0,0 km/h (0 Bft)
30.05.2013 00:52 9,4 C 8,4 C 98 % 1004,1 hPa 0,0 l/m 0 min 2 min 0,0 UV-I 0 W/m 7,7 km/h (2 Bft)
30.05.2013 00:54 9,4 C 8,4 C 98 % 1004,0 hPa 0,0 l/m 0 min 2 min 0,0 UV-I 0 W/m 5,1 km/h (1 Bft)
30.05.2013 00:56 9,4 C 8,4 C 98 % 1004,0 hPa 0,0 l/m 0 min 2 min 0,0 UV-I 0 W/m 0,0 km/h (0 Bft)
30.05.2013 00:58 9,4 C 8,4 C 98 % 1004,0 hPa 0,0 l/m 0 min 2 min 0,0 UV-I 0 W/m 12,9 km/h (3 Bft)
30.05.2013 01:00 9,4 C 8,4 C 98 % 1004,0 hPa 0,2 l/m 0 min 2 min 0,0 UV-I 0 W/m 0,0 km/h (0 Bft)
30.05.2013 01:02 9,4 C 8,4 C 98 % 1004,0 hPa 0,0 l/m 0 min 2 min 0,0 UV-I 0 W/m 2,6 km/h (1 Bft)
30.05.2013 01:04 9,4 C 8,4 C 98 % 1004,0 hPa 0,0 l/m 0 min 2 min 0,0 UV-I 0 W/m 5,1 km/h (1 Bft)
30.05.2013 01:06 9,4 C 8,4 C 98 % 1004,1 hPa 0,0 l/m 0 min 2 min 0,0 UV-I 0 W/m 0,0 km/h (0 Bft)
30.05.2013 01:08 9,4 C 8,4 C 98 % 1004,1 hPa 0,0 l/m 0 min 2 min 0,0 UV-I 0 W/m 7,7 km/h (2 Bft)
30.05.2013 01:10 9,4 C 8,4 C 98 % 1004,1 hPa 0,0 l/m 0 min 2 min 0,0 UV-I 0 W/m 0,0 km/h (0 Bft)
30.05.2013 01:12 9,4 C 8,4 C 98 % 1003,9 hPa 0,0 l/m 0 min 2 min 0,0 UV-I 0 W/m 2,6 km/h (1 Bft)
30.05.2013 01:14 9,4 C 8,4 C 98 % 1003,9 hPa 0,0 l/m 0 min 2 min 0,0 UV-I 0 W/m 0,0 km/h (0 Bft)
30.05.2013 01:16 9,4 C 8,4 C 98 % 1003,9 hPa 0,0 l/m 0 min 2 min 0,0 UV-I 0 W/m 0,0 km/h (0 Bft)
30.05.2013 01:18 9,4 C 8,4 C 98 % 1003,9 hPa 0,2 l/m 0 min 2 min 0,0 UV-I 0 W/m 0,0 km/h (0 Bft)
30.05.2013 01:20 9,4 C 8,4 C 98 % 1003,9 hPa 0,0 l/m 0 min 2 min 0,0 UV-I 0 W/m 5,1 km/h (1 Bft)
30.05.2013 01:22 9,4 C 8,4 C 98 % 1003,9 hPa 0,0 l/m 0 min 2 min 0,0 UV-I 0 W/m 5,1 km/h (1 Bft)
30.05.2013 01:24 9,4 C 8,4 C 98 % 1004,0 hPa 0,0 l/m 0 min 2 min 0,0 UV-I 0 W/m 5,1 km/h (1 Bft)
30.05.2013 01:26 9,4 C 8,4 C 98 % 1003,9 hPa 0,0 l/m 0 min 2 min 0,0 UV-I 0 W/m 0,0 km/h (0 Bft)
30.05.2013 01:28 9,4 C 8,4 C 98 % 1003,9 hPa 0,0 l/m 0 min 2 min 0,0 UV-I 0 W/m 5,1 km/h (1 Bft)
30.05.2013 01:30 9,4 C 8,4 C 98 % 1003,7 hPa 0,0 l/m 0 min 2 min 0,0 UV-I 0 W/m 0,0 km/h (0 Bft)
30.05.2013 01:32 9,3 C 8,4 C 98 % 1003,9 hPa 0,0 l/m 0 min 2 min 0,0 UV-I 0 W/m 2,6 km/h (1 Bft)
30.05.2013 01:34 9,3 C 8,4 C 98 % 1003,9 hPa 0,0 l/m 0 min 2 min 0,0 UV-I 0 W/m 2,6 km/h (1 Bft)
30.05.2013 01:36 9,3 C 8,4 C 98 % 1003,9 hPa 0,0 l/m 0 min 2 min 0,0 UV-I 0 W/m 5,1 km/h (1 Bft)
30.05.2013 01:38 9,3 C 8,4 C 98 % 1003,9 hPa 0,0 l/m 0 min 2 min 0,0 UV-I 0 W/m 5,1 km/h (1 Bft)
30.05.2013 01:40 9,3 C 8,4 C 98 % 1003,9 hPa 0,0 l/m 0 min 2 min 0,0 UV-I 0 W/m 7,7 km/h (2 Bft)
30.05.2013 01:42 9,3 C 8,4 C 98 % 1003,9 hPa 0,0 l/m 0 min 2 min 0,0 UV-I 0 W/m 5,1 km/h (1 Bft)
30.05.2013 01:44 9,3 C 8,4 C 98 % 1003,9 hPa 0,0 l/m 0 min 2 min 0,0 UV-I 0 W/m 2,6 km/h (1 Bft)
30.05.2013 01:46 9,3 C 8,4 C 98 % 1003,8 hPa 0,0 l/m 0 min 2 min 0,0 UV-I 0 W/m 2,6 km/h (1 Bft)
30.05.2013 01:48 9,3 C 8,4 C 98 % 1003,9 hPa 0,0 l/m 0 min 2 min 0,0 UV-I 0 W/m 2,6 km/h (1 Bft)
30.05.2013 01:50 9,3 C 8,4 C 98 % 1003,8 hPa 0,0 l/m 0 min 2 min 0,0 UV-I 0 W/m 0,0 km/h (0 Bft)
30.05.2013 01:52 9,3 C 8,4 C 98 % 1003,9 hPa 0,0 l/m 0 min 2 min 0,0 UV-I 0 W/m 2,6 km/h (1 Bft)
30.05.2013 01:54 9,2 C 8,4 C 98 % 1003,9 hPa 0,0 l/m 0 min 2 min 0,0 UV-I 0 W/m 12,9 km/h (3 Bft)
30.05.2013 01:56 9,2 C 8,4 C 98 % 1004,0 hPa 0,2 l/m 0 min 2 min 0,0 UV-I 0 W/m 0,0 km/h (0 Bft)
30.05.2013 01:58 9,2 C 8,4 C 98 % 1004,0 hPa 0,0 l/m 0 min 2 min 0,0 UV-I 0 W/m 0,0 km/h (0 Bft)
30.05.2013 02:00 9,2 C 8,4 C 98 % 1003,9 hPa 0,0 l/m 0 min 2 min 0,0 UV-I 0 W/m 0,0 km/h (0 Bft)
30.05.2013 02:02 9,2 C 8,4 C 98 % 1003,9 hPa 0,0 l/m 0 min 0 min 0,0 UV-I 0 W/m 0,0 km/h (0 Bft)
30.05.2013 02:04 9,2 C 8,4 C 98 % 1003,9 hPa 0,0 l/m 0 min 0 min 0,0 UV-I 0 W/m 7,7 km/h (2 Bft)
30.05.2013 02:06 9,2 C 8,4 C 98 % 1003,9 hPa 0,0 l/m 0 min 2 min 0,0 UV-I 0 W/m 0,0 km/h (0 Bft)
30.05.2013 02:08 9,2 C 8,4 C 98 % 1003,9 hPa 0,0 l/m 0 min 0 min 0,0 UV-I 0 W/m 0,0 km/h (0 Bft)
30.05.2013 02:10 9,2 C 8,4 C 98 % 1004,0 hPa 0,0 l/m 0 min 2 min 0,0 UV-I 0 W/m 0,0 km/h (0 Bft)
30.05.2013 02:12 9,1 C 8,4 C 98 % 1004,0 hPa 0,0 l/m 0 min 2 min 0,0 UV-I 0 W/m 7,7 km/h (2 Bft)
30.05.2013 02:14 9,1 C 8,4 C 98 % 1004,0 hPa 0,0 l/m 0 min 2 min 0,0 UV-I 0 W/m 0,0 km/h (0 Bft)
30.05.2013 02:16 9,1 C 8,4 C 98 % 1004,0 hPa 0,0 l/m 0 min 2 min 0,0 UV-I 0 W/m 7,7 km/h (2 Bft)
30.05.2013 02:18 9,1 C 8,4 C 98 % 1004,0 hPa 0,0 l/m 0 min 0 min 0,0 UV-I 0 W/m 2,6 km/h (1 Bft)
30.05.2013 02:20 9,1 C 8,4 C 98 % 1004,0 hPa 0,0 l/m 0 min 0 min 0,0 UV-I 0 W/m 0,0 km/h (0 Bft)
30.05.2013 02:22 9,1 C 8,4 C 98 % 1004,0 hPa 0,0 l/m 0 min 0 min 0,0 UV-I 0 W/m 2,6 km/h (1 Bft)
30.05.2013 02:24 9,1 C 7,9 C 98 % 1004,1 hPa 0,0 l/m 0 min 2 min 0,0 UV-I 0 W/m 7,7 km/h (2 Bft)
30.05.2013 02:26 9,1 C 7,9 C 98 % 1004,1 hPa 0,0 l/m 0 min 0 min 0,0 UV-I 0 W/m 5,1 km/h (1 Bft)
30.05.2013 02:28 9,1 C 7,9 C 98 % 1004,1 hPa 0,0 l/m 0 min 0 min 0,0 UV-I 0 W/m 2,6 km/h (1 Bft)
30.05.2013 02:30 9,1 C 7,9 C 98 % 1004,1 hPa 0,0 l/m 0 min 0 min 0,0 UV-I 0 W/m 0,0 km/h (0 Bft)
30.05.2013 02:32 9,0 C 7,9 C 98 % 1004,0 hPa 0,0 l/m 0 min 0 min 0,0 UV-I 0 W/m 5,1 km/h (1 Bft)
30.05.2013 02:34 9,0 C 7,9 C 98 % 1004,0 hPa 0,0 l/m 0 min 0 min 0,0 UV-I 0 W/m 2,6 km/h (1 Bft)
30.05.2013 02:36 9,0 C 7,9 C 98 % 1004,1 hPa 0,0 l/m 0 min 0 min 0,0 UV-I 0 W/m 0,0 km/h (0 Bft)
30.05.2013 02:38 9,0 C 7,9 C 98 % 1004,2 hPa 0,0 l/m 0 min 0 min 0,0 UV-I 0 W/m 2,6 km/h (1 Bft)
30.05.2013 02:40 9,0 C 7,9 C 98 % 1004,1 hPa 0,0 l/m 0 min 0 min 0,0 UV-I 0 W/m 0,0 km/h (0 Bft)
30.05.2013 02:42 9,0 C 7,9 C 98 % 1004,1 hPa 0,0 l/m 0 min 0 min 0,0 UV-I 0 W/m 2,6 km/h (1 Bft)
30.05.2013 02:44 9,0 C 7,9 C 98 % 1004,1 hPa 0,0 l/m 0 min 0 min 0,0 UV-I 0 W/m 5,1 km/h (1 Bft)
30.05.2013 02:46 8,9 C 7,9 C 98 % 1004,1 hPa 0,0 l/m 0 min 0 min 0,0 UV-I 0 W/m 2,6 km/h (1 Bft)
30.05.2013 02:48 9,0 C 7,9 C 98 % 1004,1 hPa 0,0 l/m 0 min 0 min 0,0 UV-I 0 W/m 7,7 km/h (2 Bft)
30.05.2013 02:50 8,9 C 7,9 C 98 % 1004,1 hPa 0,0 l/m 0 min 0 min 0,0 UV-I 0 W/m 5,1 km/h (1 Bft)
30.05.2013 02:52 8,9 C 7,9 C 98 % 1004,1 hPa 0,0 l/m 0 min 0 min 0,0 UV-I 0 W/m 5,1 km/h (1 Bft)
30.05.2013 02:54 8,9 C 7,9 C 98 % 1004,2 hPa 0,0 l/m 0 min 2 min 0,0 UV-I 0 W/m 7,7 km/h (2 Bft)
30.05.2013 02:56 8,9 C 7,9 C 98 % 1004,2 hPa 0,0 l/m 0 min 0 min 0,0 UV-I 0 W/m 7,7 km/h (2 Bft)
30.05.2013 02:58 8,9 C 7,9 C 98 % 1004,1 hPa 0,0 l/m 0 min 2 min 0,0 UV-I 0 W/m 7,7 km/h (2 Bft)
30.05.2013 03:00 8,9 C 7,9 C 98 % 1004,1 hPa 0,0 l/m 0 min 2 min 0,0 UV-I 0 W/m 5,1 km/h (1 Bft)
30.05.2013 03:02 8,9 C 7,9 C 98 % 1004,1 hPa 0,0 l/m 0 min 2 min 0,0 UV-I 0 W/m 0,0 km/h (0 Bft)
30.05.2013 03:06 8,9 C 7,9 C 98 % 1004,2 hPa 0,0 l/m 0 min 2 min 0,0 UV-I 0 W/m 2,6 km/h (1 Bft)
30.05.2013 03:08 8,9 C 7,9 C 98 % 1004,3 hPa 0,0 l/m 0 min 0 min 0,0 UV-I 0 W/m 5,1 km/h (1 Bft)
30.05.2013 03:10 8,9 C 7,9 C 98 % 1004,2 hPa 0,0 l/m 0 min 2 min 0,0 UV-I 0 W/m 5,1 km/h (1 Bft)
30.05.2013 03:12 8,9 C 7,9 C 98 % 1004,2 hPa 0,0 l/m 0 min 0 min 0,0 UV-I 0 W/m 0,0 km/h (0 Bft)
30.05.2013 03:14 8,8 C 7,9 C 98 % 1004,2 hPa 0,0 l/m 0 min 0 min 0,0 UV-I 0 W/m 0,0 km/h (0 Bft)
30.05.2013 03:16 8,9 C 7,9 C 98 % 1004,2 hPa 0,0 l/m 0 min 0 min 0,0 UV-I 0 W/m 0,0 km/h (0 Bft)
30.05.2013 03:18 8,8 C 7,9 C 98 % 1004,2 hPa 0,0 l/m 0 min 0 min 0,0 UV-I 0 W/m 0,0 km/h (0 Bft)
30.05.2013 03:20 8,9 C 7,9 C 98 % 1004,2 hPa 0,0 l/m 0 min 0 min 0,0 UV-I 0 W/m 0,0 km/h (0 Bft)
30.05.2013 03:22 8,8 C 7,9 C 98 % 1004,2 hPa 0,0 l/m 0 min 0 min 0,0 UV-I 0 W/m 0,0 km/h (0 Bft)
30.05.2013 03:24 8,9 C 7,9 C 98 % 1004,2 hPa 0,0 l/m 0 min 0 min 0,0 UV-I 0 W/m 0,0 km/h (0 Bft)
30.05.2013 03:26 8,8 C 7,9 C 98 % 1004,2 hPa 0,0 l/m 0 min 0 min 0,0 UV-I 0 W/m 0,0 km/h (0 Bft)
30.05.2013 03:28 8,9 C 7,9 C 98 % 1004,2 hPa 0,0 l/m 0 min 0 min 0,0 UV-I 0 W/m 0,0 km/h (0 Bft)
30.05.2013 03:30 8,8 C 7,9 C 98 % 1004,2 hPa 0,0 l/m 0 min 0 min 0,0 UV-I 0 W/m 0,0 km/h (0 Bft)
30.05.2013 03:32 8,8 C 7,9 C 98 % 1004,2 hPa 0,0 l/m 0 min 0 min 0,0 UV-I 0 W/m 0,0 km/h (0 Bft)
30.05.2013 03:34 8,8 C 7,9 C 98 % 1004,2 hPa 0,0 l/m 0 min 0 min 0,0 UV-I 0 W/m 10,3 km/h (2 Bft)
30.05.2013 03:36 8,8 C 7,9 C 98 % 1004,2 hPa 0,0 l/m 0 min 0 min 0,0 UV-I 0 W/m 0,0 km/h (0 Bft)
30.05.2013 03:38 8,8 C 7,9 C 98 % 1004,1 hPa 0,0 l/m 0 min 0 min 0,0 UV-I 0 W/m 0,0 km/h (0 Bft)
30.05.2013 03:40 8,8 C 7,9 C 98 % 1004,2 hPa 0,0 l/m 0 min 0 min 0,0 UV-I 0 W/m 2,6 km/h (1 Bft)
30.05.2013 03:42 8,8 C 7,9 C 98 % 1004,2 hPa 0,0 l/m 0 min 0 min 0,0 UV-I 0 W/m 2,6 km/h (1 Bft)
30.05.2013 03:44 8,8 C 7,9 C 98 % 1004,2 hPa 0,0 l/m 0 min 0 min 0,0 UV-I 0 W/m 0,0 km/h (0 Bft)
30.05.2013 03:46 8,8 C 7,9 C 98 % 1004,2 hPa 0,0 l/m 0 min 0 min 0,0 UV-I 0 W/m 0,0 km/h (0 Bft)
30.05.2013 03:48 8,8 C 7,9 C 98 % 1004,2 hPa 0,0 l/m 0 min 0 min 0,0 UV-I 0 W/m 0,0 km/h (0 Bft)
30.05.2013 03:50 8,8 C 7,9 C 98 % 1004,2 hPa 0,0 l/m 0 min 0 min 0,0 UV-I 0 W/m 0,0 km/h (0 Bft)
30.05.2013 03:52 8,8 C 7,9 C 98 % 1004,3 hPa 0,0 l/m 0 min 0 min 0,0 UV-I 0 W/m 0,0 km/h (0 Bft)
30.05.2013 03:54 8,8 C 7,9 C 98 % 1004,3 hPa 0,0 l/m 0 min 0 min 0,0 UV-I 0 W/m 0,0 km/h (0 Bft)
30.05.2013 03:56 8,8 C 7,9 C 98 % 1004,4 hPa 0,0 l/m 0 min 0 min 0,0 UV-I 0 W/m 2,6 km/h (1 Bft)
30.05.2013 03:58 8,8 C 7,9 C 98 % 1004,4 hPa 0,0 l/m 0 min 0 min 0,0 UV-I 0 W/m 7,7 km/h (2 Bft)
30.05.2013 04:00 8,8 C 7,9 C 98 % 1004,4 hPa 0,0 l/m 0 min 0 min 0,0 UV-I 0 W/m 2,6 km/h (1 Bft)
30.05.2013 04:02 8,8 C 7,9 C 98 % 1004,4 hPa 0,0 l/m 0 min 0 min 0,0 UV-I 0 W/m 0,0 km/h (0 Bft)
30.05.2013 04:04 8,8 C 7,9 C 98 % 1004,3 hPa 0,0 l/m 0 min 0 min 0,0 UV-I 0 W/m 0,0 km/h (0 Bft)
30.05.2013 04:09 8,8 C 7,9 C 98 % 1004,3 hPa 0,0 l/m 0 min 0 min 0,0 UV-I 0 W/m 0,0 km/h (0 Bft)
30.05.2013 04:10 8,8 C 7,9 C 98 % 1004,3 hPa 0,0 l/m 0 min 0 min 0,0 UV-I 0 W/m 0,0 km/h (0 Bft)
30.05.2013 04:12 8,8 C 7,9 C 98 % 1004,3 hPa 0,0 l/m 0 min 0 min 0,0 UV-I 0 W/m 0,0 km/h (0 Bft)
30.05.2013 04:14 8,8 C 7,9 C 98 % 1004,2 hPa 0,0 l/m 0 min 0 min 0,0 UV-I 0 W/m 5,1 km/h (1 Bft)
30.05.2013 04:16 8,8 C 7,9 C 98 % 1004,4 hPa 0,0 l/m 0 min 0 min 0,0 UV-I 0 W/m 0,0 km/h (0 Bft)
30.05.2013 04:18 8,8 C 7,9 C 98 % 1004,4 hPa 0,0 l/m 0 min 0 min 0,0 UV-I 0 W/m 0,0 km/h (0 Bft)
30.05.2013 04:20 8,8 C 7,9 C 98 % 1004,4 hPa 0,0 l/m 0 min 0 min 0,0 UV-I 0 W/m 5,1 km/h (1 Bft)
30.05.2013 04:22 8,8 C 7,9 C 98 % 1004,3 hPa 0,0 l/m 0 min 0 min 0,0 UV-I 0 W/m 5,1 km/h (1 Bft)
30.05.2013 04:24 8,8 C 7,9 C 98 % 1004,3 hPa 0,0 l/m 0 min 0 min 0,0 UV-I 0 W/m 0,0 km/h (0 Bft)
30.05.2013 04:26 8,7 C 7,9 C 98 % 1004,3 hPa 0,0 l/m 0 min 0 min 0,0 UV-I 0 W/m 0,0 km/h (0 Bft)
30.05.2013 04:28 8,7 C 7,9 C 98 % 1004,4 hPa 0,0 l/m 0 min 0 min 0,0 UV-I 0 W/m 0,0 km/h (0 Bft)
30.05.2013 04:30 8,7 C 7,9 C 98 % 1004,4 hPa 0,0 l/m 0 min 0 min 0,0 UV-I 0 W/m 0,0 km/h (0 Bft)
30.05.2013 04:32 8,7 C 7,9 C 98 % 1004,4 hPa 0,0 l/m 0 min 0 min 0,0 UV-I 0 W/m 5,1 km/h (1 Bft)
30.05.2013 04:34 8,8 C 7,9 C 98 % 1004,4 hPa 0,0 l/m 0 min 0 min 0,0 UV-I 0 W/m 2,6 km/h (1 Bft)
30.05.2013 04:36 8,7 C 7,9 C 98 % 1004,4 hPa 0,0 l/m 0 min 0 min 0,0 UV-I 0 W/m 0,0 km/h (0 Bft)
30.05.2013 04:38 8,7 C 7,9 C 98 % 1004,4 hPa 0,0 l/m 0 min 0 min 0,0 UV-I 0 W/m 5,1 km/h (1 Bft)
30.05.2013 04:40 8,7 C 7,9 C 98 % 1004,4 hPa 0,0 l/m 0 min 0 min 0,0 UV-I 0 W/m 0,0 km/h (0 Bft)
30.05.2013 04:42 8,7 C 7,9 C 98 % 1004,4 hPa 0,0 l/m 0 min 0 min 0,0 UV-I 0 W/m 0,0 km/h (0 Bft)
30.05.2013 04:44 8,7 C 7,9 C 98 % 1004,5 hPa 0,0 l/m 0 min 0 min 0,0 UV-I 0 W/m 2,6 km/h (1 Bft)
30.05.2013 04:46 8,7 C 7,9 C 98 % 1004,5 hPa 0,0 l/m 0 min 0 min 0,0 UV-I 0 W/m 0,0 km/h (0 Bft)
30.05.2013 04:48 8,7 C 7,9 C 98 % 1004,3 hPa 0,0 l/m 0 min 0 min 0,0 UV-I 0 W/m 0,0 km/h (0 Bft)
30.05.2013 04:50 8,7 C 7,9 C 98 % 1004,4 hPa 0,0 l/m 0 min 0 min 0,0 UV-I 0 W/m 2,6 km/h (1 Bft)
30.05.2013 04:52 8,7 C 7,9 C 98 % 1004,4 hPa 0,0 l/m 0 min 0 min 0,0 UV-I 0 W/m 0,0 km/h (0 Bft)
30.05.2013 04:54 8,7 C 7,9 C 98 % 1004,4 hPa 0,0 l/m 0 min 0 min 0,0 UV-I 0 W/m 0,0 km/h (0 Bft)
30.05.2013 04:56 8,7 C 7,9 C 98 % 1004,5 hPa 0,0 l/m 0 min 0 min 0,0 UV-I 0 W/m 0,0 km/h (0 Bft)
30.05.2013 04:58 8,7 C 7,9 C 98 % 1004,5 hPa 0,0 l/m 0 min 0 min 0,0 UV-I 0 W/m 5,1 km/h (1 Bft)
30.05.2013 05:00 8,7 C 7,9 C 98 % 1004,5 hPa 0,0 l/m 0 min 0 min 0,0 UV-I 0 W/m 10,3 km/h (2 Bft)
30.05.2013 05:02 8,7 C 7,9 C 98 % 1004,4 hPa 0,0 l/m 0 min 0 min 0,0 UV-I 0 W/m 10,3 km/h (2 Bft)
30.05.2013 05:04 8,7 C 7,9 C 98 % 1004,5 hPa 0,0 l/m 0 min 0 min 0,0 UV-I 0 W/m 0,0 km/h (0 Bft)
30.05.2013 05:06 8,7 C 7,9 C 98 % 1004,3 hPa 0,0 l/m 0 min 0 min 0,0 UV-I 0 W/m 7,7 km/h (2 Bft)
30.05.2013 05:08 8,7 C 7,9 C 98 % 1004,5 hPa 0,0 l/m 0 min 0 min 0,0 UV-I 0 W/m 2,6 km/h (1 Bft)
30.05.2013 05:10 8,7 C 7,9 C 98 % 1004,5 hPa 0,0 l/m 0 min 0 min 0,0 UV-I 0 W/m 0,0 km/h (0 Bft)
30.05.2013 05:12 8,7 C 7,9 C 98 % 1004,6 hPa 0,0 l/m 0 min 0 min 0,0 UV-I 0 W/m 2,6 km/h (1 Bft)
30.05.2013 05:14 8,7 C 7,9 C 98 % 1004,6 hPa 0,0 l/m 0 min 0 min 0,0 UV-I 0 W/m 0,0 km/h (0 Bft)
30.05.2013 05:16 8,7 C 7,9 C 98 % 1004,6 hPa 0,0 l/m 0 min 0 min 0,0 UV-I 0 W/m 0,0 km/h (0 Bft)
30.05.2013 05:18 8,6 C 7,9 C 98 % 1004,5 hPa 0,0 l/m 0 min 0 min 0,0 UV-I 0 W/m 0,0 km/h (0 Bft)
30.05.2013 05:20 8,6 C 7,9 C 98 % 1004,5 hPa 0,0 l/m 0 min 0 min 0,0 UV-I 0 W/m 2,6 km/h (1 Bft)
30.05.2013 05:22 8,6 C 7,9 C 98 % 1004,6 hPa 0,0 l/m 0 min 0 min 0,0 UV-I 0 W/m 7,7 km/h (2 Bft)
30.05.2013 05:24 8,6 C 7,9 C 98 % 1004,6 hPa 0,0 l/m 0 min 0 min 0,0 UV-I 0 W/m 2,6 km/h (1 Bft)
30.05.2013 05:26 8,6 C 7,9 C 98 % 1004,6 hPa 0,0 l/m 0 min 0 min 0,0 UV-I 0 W/m 0,0 km/h (0 Bft)
30.05.2013 05:28 8,6 C 7,9 C 98 % 1004,6 hPa 0,0 l/m 0 min 0 min 0,0 UV-I 0 W/m 5,1 km/h (1 Bft)
30.05.2013 05:30 8,6 C 7,9 C 98 % 1004,6 hPa 0,0 l/m 0 min 0 min 0,0 UV-I 0 W/m 7,7 km/h (2 Bft)
30.05.2013 05:32 8,6 C 7,9 C 98 % 1004,6 hPa 0,0 l/m 0 min 0 min 0,0 UV-I 0 W/m 0,0 km/h (0 Bft)
30.05.2013 05:34 8,6 C 7,9 C 98 % 1004,6 hPa 0,0 l/m 0 min 0 min 0,0 UV-I 0 W/m 5,1 km/h (1 Bft)
30.05.2013 05:36 8,6 C 7,9 C 98 % 1004,7 hPa 0,0 l/m 0 min 0 min 0,0 UV-I 0 W/m 5,1 km/h (1 Bft)
30.05.2013 05:38 8,6 C 7,9 C 98 % 1004,7 hPa 0,0 l/m 0 min 0 min 0,0 UV-I 0 W/m 2,6 km/h (1 Bft)
30.05.2013 05:40 8,6 C 7,9 C 98 % 1004,7 hPa 0,0 l/m 0 min 0 min 0,0 UV-I 0 W/m 0,0 km/h (0 Bft)
30.05.2013 05:42 8,6 C 7,9 C 98 % 1004,7 hPa 0,0 l/m 0 min 0 min 0,0 UV-I 0 W/m 0,0 km/h (0 Bft)
30.05.2013 05:44 8,6 C 7,9 C 98 % 1004,7 hPa 0,0 l/m 0 min 0 min 0,0 UV-I 5 W/m 0,0 km/h (0 Bft)
30.05.2013 05:46 8,6 C 7,9 C 98 % 1004,6 hPa 0,0 l/m 0 min 0 min 0,0 UV-I 7 W/m 0,0 km/h (0 Bft)
30.05.2013 05:48 8,6 C 7,9 C 98 % 1004,6 hPa 0,0 l/m 0 min 0 min 0,0 UV-I 7 W/m 0,0 km/h (0 Bft)
30.05.2013 05:50 8,6 C 7,9 C 98 % 1004,7 hPa 0,0 l/m 0 min 0 min 0,0 UV-I 7 W/m 0,0 km/h (0 Bft)
30.05.2013 05:52 8,6 C 7,9 C 98 % 1004,7 hPa 0,0 l/m 0 min 0 min 0,0 UV-I 7 W/m 0,0 km/h (0 Bft)
30.05.2013 05:54 8,6 C 7,9 C 98 % 1004,7 hPa 0,0 l/m 0 min 0 min 0,0 UV-I 9 W/m 2,6 km/h (1 Bft)
30.05.2013 05:56 8,6 C 7,9 C 98 % 1004,7 hPa 0,0 l/m 0 min 0 min 0,0 UV-I 9 W/m 0,0 km/h (0 Bft)
30.05.2013 05:58 8,6 C 7,9 C 98 % 1004,7 hPa 0,0 l/m 0 min 0 min 0,0 UV-I 11 W/m 7,7 km/h (2 Bft)
30.05.2013 06:00 8,6 C 7,9 C 98 % 1004,7 hPa 0,0 l/m 0 min 0 min 0,0 UV-I 12 W/m 0,0 km/h (0 Bft)
30.05.2013 06:02 8,6 C 7,9 C 98 % 1004,7 hPa 0,0 l/m 0 min 0 min 0,0 UV-I 12 W/m 0,0 km/h (0 Bft)
30.05.2013 06:04 8,6 C 7,9 C 98 % 1004,7 hPa 0,0 l/m 0 min 0 min 0,0 UV-I 14 W/m 10,3 km/h (2 Bft)
30.05.2013 06:06 8,6 C 7,9 C 98 % 1004,7 hPa 0,0 l/m 0 min 0 min 0,0 UV-I 16 W/m 5,1 km/h (1 Bft)
30.05.2013 06:08 8,6 C 7,9 C 98 % 1004,7 hPa 0,0 l/m 0 min 0 min 0,0 UV-I 16 W/m 0,0 km/h (0 Bft)
30.05.2013 06:10 8,6 C 7,9 C 98 % 1004,8 hPa 0,0 l/m 0 min 0 min 0,0 UV-I 19 W/m 0,0 km/h (0 Bft)
30.05.2013 06:12 8,6 C 7,9 C 98 % 1004,8 hPa 0,0 l/m 0 min 0 min 0,0 UV-I 23 W/m 0,0 km/h (0 Bft)
30.05.2013 06:14 8,6 C 7,9 C 98 % 1004,8 hPa 0,0 l/m 0 min 0 min 0,0 UV-I 25 W/m 0,0 km/h (0 Bft)
30.05.2013 06:16 8,6 C 7,9 C 98 % 1004,8 hPa 0,0 l/m 0 min 0 min 0,0 UV-I 25 W/m 0,0 km/h (0 Bft)
30.05.2013 06:18 8,6 C 7,9 C 98 % 1004,9 hPa 0,0 l/m 0 min 0 min 0,0 UV-I 25 W/m 0,0 km/h (0 Bft)
30.05.2013 06:20 8,6 C 7,9 C 98 % 1004,9 hPa 0,0 l/m 0 min 0 min 0,0 UV-I 28 W/m 12,9 km/h (3 Bft)
30.05.2013 06:22 8,6 C 7,9 C 98 % 1004,9 hPa 0,0 l/m 0 min 0 min 0,0 UV-I 30 W/m 5,1 km/h (1 Bft)
30.05.2013 06:24 8,6 C 7,9 C 98 % 1004,9 hPa 0,0 l/m 0 min 0 min 0,0 UV-I 32 W/m 0,0 km/h (0 Bft)
30.05.2013 06:26 8,6 C 7,9 C 98 % 1004,9 hPa 0,0 l/m 0 min 0 min 0,0 UV-I 32 W/m 5,1 km/h (1 Bft)
30.05.2013 06:28 8,6 C 7,9 C 98 % 1005,0 hPa 0,0 l/m 0 min 0 min 0,0 UV-I 35 W/m 5,1 km/h (1 Bft)
30.05.2013 06:30 8,6 C 7,9 C 98 % 1005,0 hPa 0,0 l/m 0 min 0 min 0,0 UV-I 39 W/m 0,0 km/h (0 Bft)
30.05.2013 06:32 8,6 C 7,9 C 98 % 1005,0 hPa 0,0 l/m 0 min 0 min 0,0 UV-I 44 W/m 0,0 km/h (0 Bft)
30.05.2013 06:34 8,6 C 7,9 C 98 % 1004,9 hPa 0,0 l/m 0 min 0 min 0,0 UV-I 51 W/m 2,6 km/h (1 Bft)
30.05.2013 06:36 8,6 C 7,9 C 98 % 1004,9 hPa 0,0 l/m 0 min 0 min 0,0 UV-I 51 W/m 7,7 km/h (2 Bft)
30.05.2013 06:38 8,6 C 7,9 C 98 % 1004,9 hPa 0,0 l/m 0 min 0 min 0,0 UV-I 54 W/m 2,6 km/h (1 Bft)
30.05.2013 06:40 8,6 C 7,9 C 98 % 1004,9 hPa 0,0 l/m 0 min 0 min 0,0 UV-I 53 W/m 5,1 km/h (1 Bft)
30.05.2013 06:42 8,6 C 7,9 C 98 % 1004,9 hPa 0,0 l/m 0 min 0 min 0,0 UV-I 53 W/m 12,9 km/h (3 Bft)
30.05.2013 06:44 8,6 C 7,9 C 98 % 1004,9 hPa 0,0 l/m 0 min 0 min 0,0 UV-I 54 W/m 0,0 km/h (0 Bft)
30.05.2013 06:46 8,6 C 7,9 C 98 % 1004,9 hPa 0,0 l/m 0 min 0 min 0,0 UV-I 56 W/m 0,0 km/h (0 Bft)
30.05.2013 06:48 8,6 C 7,9 C 98 % 1004,9 hPa 0,0 l/m 0 min 0 min 0,0 UV-I 60 W/m 5,1 km/h (1 Bft)
30.05.2013 06:50 8,6 C 7,9 C 98 % 1005,0 hPa 0,0 l/m 0 min 0 min 0,0 UV-I 62 W/m 7,7 km/h (2 Bft)
30.05.2013 06:52 8,7 C 7,9 C 98 % 1004,9 hPa 0,0 l/m 0 min 0 min 0,0 UV-I 63 W/m 0,0 km/h (0 Bft)
30.05.2013 06:54 8,7 C 7,9 C 98 % 1004,9 hPa 0,0 l/m 0 min 0 min 0,0 UV-I 67 W/m 2,6 km/h (1 Bft)
30.05.2013 06:56 8,7 C 8,4 C 98 % 1004,9 hPa 0,0 l/m 0 min 0 min 0,0 UV-I 65 W/m 0,0 km/h (0 Bft)
30.05.2013 06:58 8,7 C 8,4 C 98 % 1004,9 hPa 0,0 l/m 0 min 0 min 0,0 UV-I 63 W/m 0,0 km/h (0 Bft)
30.05.2013 07:00 8,7 C 8,4 C 98 % 1004,9 hPa 0,0 l/m 0 min 0 min 0,0 UV-I 62 W/m 7,7 km/h (2 Bft)
30.05.2013 07:02 8,7 C 8,4 C 98 % 1004,9 hPa 0,0 l/m 0 min 0 min 0,0 UV-I 65 W/m 0,0 km/h (0 Bft)
30.05.2013 07:04 8,7 C 8,4 C 98 % 1005,0 hPa 0,0 l/m 0 min 0 min 0,0 UV-I 69 W/m 5,1 km/h (1 Bft)
30.05.2013 07:06 8,7 C 8,4 C 98 % 1005,0 hPa 0,0 l/m 0 min 0 min 0,0 UV-I 74 W/m 7,7 km/h (2 Bft)
30.05.2013 07:08 8,8 C 8,4 C 98 % 1005,1 hPa 0,0 l/m 0 min 0 min 0,0 UV-I 74 W/m 0,0 km/h (0 Bft)
30.05.2013 07:10 8,8 C 8,4 C 98 % 1005,1 hPa 0,0 l/m 0 min 0 min 0,0 UV-I 72 W/m 0,0 km/h (0 Bft)
30.05.2013 07:12 8,8 C 8,4 C 98 % 1005,2 hPa 0,0 l/m 0 min 0 min 0,0 UV-I 74 W/m 7,7 km/h (2 Bft)
30.05.2013 07:14 8,8 C 8,4 C 98 % 1005,2 hPa 0,0 l/m 0 min 0 min 0,0 UV-I 69 W/m 0,0 km/h (0 Bft)
30.05.2013 07:16 8,8 C 8,4 C 98 % 1005,3 hPa 0,0 l/m 0 min 0 min 0,0 UV-I 65 W/m 2,6 km/h (1 Bft)
30.05.2013 07:18 8,9 C 8,4 C 98 % 1005,3 hPa 0,0 l/m 0 min 0 min 0,0 UV-I 67 W/m 7,7 km/h (2 Bft)
30.05.2013 07:20 8,9 C 8,4 C 98 % 1005,3 hPa 0,0 l/m 0 min 0 min 0,0 UV-I 69 W/m 5,1 km/h (1 Bft)
30.05.2013 07:22 8,9 C 8,4 C 98 % 1005,4 hPa 0,0 l/m 0 min 0 min 0,0 UV-I 70 W/m 5,1 km/h (1 Bft)
30.05.2013 07:24 8,9 C 8,4 C 98 % 1005,4 hPa 0,0 l/m 0 min 0 min 0,0 UV-I 70 W/m 0,0 km/h (0 Bft)
30.05.2013 07:26 9,0 C 8,4 C 98 % 1005,4 hPa 0,0 l/m 0 min 0 min 0,0 UV-I 76 W/m 0,0 km/h (0 Bft)
30.05.2013 07:28 9,0 C 8,4 C 98 % 1005,4 hPa 0,0 l/m 0 min 0 min 0,0 UV-I 77 W/m 0,0 km/h (0 Bft)
30.05.2013 07:30 9,1 C 9,0 C 98 % 1005,4 hPa 0,0 l/m 0 min 0 min 0,0 UV-I 76 W/m 7,7 km/h (2 Bft)
30.05.2013 07:32 9,1 C 9,0 C 98 % 1005,6 hPa 0,0 l/m 0 min 0 min 0,0 UV-I 77 W/m 0,0 km/h (0 Bft)
30.05.2013 07:34 9,1 C 9,0 C 98 % 1005,6 hPa 0,0 l/m 0 min 0 min 0,0 UV-I 77 W/m 0,0 km/h (0 Bft)
30.05.2013 07:36 9,2 C 9,0 C 98 % 1005,6 hPa 0,0 l/m 0 min 0 min 0,0 UV-I 81 W/m 2,6 km/h (1 Bft)
30.05.2013 07:38 9,2 C 9,0 C 98 % 1005,6 hPa 0,0 l/m 0 min 0 min 0,0 UV-I 90 W/m 0,0 km/h (0 Bft)
30.05.2013 07:40 9,2 C 9,0 C 98 % 1005,6 hPa 0,0 l/m 0 min 0 min 0,0 UV-I 91 W/m 0,0 km/h (0 Bft)
30.05.2013 07:42 9,2 C 9,0 C 98 % 1005,6 hPa 0,0 l/m 0 min 0 min 0,0 UV-I 97 W/m 0,0 km/h (0 Bft)
30.05.2013 07:44 9,3 C 9,0 C 98 % 1005,7 hPa 0,0 l/m 0 min 0 min 0,0 UV-I 107 W/m 0,0 km/h (0 Bft)
30.05.2013 07:46 9,3 C 9,0 C 98 % 1005,7 hPa 0,0 l/m 0 min 0 min 0,0 UV-I 111 W/m 7,7 km/h (2 Bft)
30.05.2013 07:48 9,3 C 9,0 C 98 % 1005,7 hPa 0,0 l/m 0 min 0 min 0,0 UV-I 109 W/m 2,6 km/h (1 Bft)
30.05.2013 07:50 9,3 C 9,0 C 98 % 1005,8 hPa 0,0 l/m 0 min 0 min 0,0 UV-I 107 W/m 7,7 km/h (2 Bft)
30.05.2013 07:52 9,4 C 9,0 C 98 % 1005,8 hPa 0,0 l/m 0 min 0 min 0,0 UV-I 105 W/m 2,6 km/h (1 Bft)
30.05.2013 07:54 9,4 C 9,0 C 98 % 1005,8 hPa 0,0 l/m 0 min 0 min 0,0 UV-I 111 W/m 0,0 km/h (0 Bft)
30.05.2013 07:56 9,4 C 9,0 C 98 % 1005,8 hPa 0,0 l/m 0 min 0 min 0,0 UV-I 121 W/m 0,0 km/h (0 Bft)
30.05.2013 07:58 9,4 C 9,6 C 98 % 1005,8 hPa 0,0 l/m 0 min 0 min 0,0 UV-I 132 W/m 5,1 km/h (1 Bft)
30.05.2013 08:00 9,5 C 9,6 C 98 % 1005,9 hPa 0,0 l/m 0 min 0 min 0,0 UV-I 153 W/m 0,0 km/h (0 Bft)
30.05.2013 08:02 9,6 C 9,6 C 98 % 1006,0 hPa 0,0 l/m 0 min 0 min 0,0 UV-I 163 W/m 0,0 km/h (0 Bft)
30.05.2013 08:04 9,6 C 9,6 C 98 % 1006,0 hPa 0,0 l/m 0 min 0 min 0,0 UV-I 176 W/m 2,6 km/h (1 Bft)
30.05.2013 08:06 9,6 C 9,6 C 98 % 1005,9 hPa 0,0 l/m 2 min 0 min 0,0 UV-I 248 W/m 10,3 km/h (2 Bft)
30.05.2013 08:08 9,6 C 9,6 C 98 % 1006,0 hPa 0,0 l/m 0 min 0 min 0,0 UV-I 178 W/m 10,3 km/h (2 Bft)
30.05.2013 08:10 9,6 C 9,6 C 98 % 1005,9 hPa 0,0 l/m 0 min 0 min 0,0 UV-I 172 W/m 12,9 km/h (3 Bft)
30.05.2013 08:12 9,6 C 9,6 C 98 % 1005,9 hPa 0,0 l/m 0 min 0 min 0,0 UV-I 185 W/m 10,3 km/h (2 Bft)
30.05.2013 08:14 9,7 C 9,6 C 98 % 1005,9 hPa 0,0 l/m 0 min 0 min 0,0 UV-I 185 W/m 12,9 km/h (3 Bft)
30.05.2013 08:16 9,7 C 9,6 C 98 % 1006,0 hPa 0,0 l/m 0 min 0 min 0,0 UV-I 207 W/m 2,6 km/h (1 Bft)
30.05.2013 08:18 9,7 C 9,6 C 98 % 1005,9 hPa 0,0 l/m 2 min 0 min 0,0 UV-I 236 W/m 7,7 km/h (2 Bft)
30.05.2013 08:20 9,7 C 10,1 C 98 % 1006,0 hPa 0,0 l/m 0 min 0 min 0,0 UV-I 211 W/m 2,6 km/h (1 Bft)
30.05.2013 08:22 9,7 C 10,1 C 98 % 1006,0 hPa 0,0 l/m 2 min 0 min 0,0 UV-I 299 W/m 0,0 km/h (0 Bft)
30.05.2013 08:24 9,8 C 10,1 C 98 % 1006,0 hPa 0,0 l/m 2 min 0 min 0,0 UV-I 316 W/m 12,9 km/h (3 Bft)
30.05.2013 08:26 9,8 C 10,1 C 98 % 1006,1 hPa 0,0 l/m 2 min 0 min 0,0 UV-I 272 W/m 10,3 km/h (2 Bft)
30.05.2013 08:28 9,9 C 10,1 C 98 % 1006,1 hPa 0,0 l/m 2 min 0 min 0,0 UV-I 323 W/m 7,7 km/h (2 Bft)
30.05.2013 08:30 9,9 C 10,1 C 98 % 1006,1 hPa 0,0 l/m 0 min 0 min 0,0 UV-I 134 W/m 10,3 km/h (2 Bft)
30.05.2013 08:32 10,0 C 10,1 C 98 % 1006,1 hPa 0,0 l/m 0 min 0 min 0,0 UV-I 153 W/m 5,1 km/h (1 Bft)
30.05.2013 08:34 10,0 C 10,1 C 98 % 1006,1 hPa 0,0 l/m 0 min 0 min 0,0 UV-I 185 W/m 7,7 km/h (2 Bft)
30.05.2013 08:36 10,0 C 10,1 C 98 % 1006,1 hPa 0,0 l/m 0 min 0 min 0,0 UV-I 186 W/m 12,9 km/h (3 Bft)
30.05.2013 08:38 10,0 C 10,1 C 98 % 1006,1 hPa 0,0 l/m 0 min 0 min 0,0 UV-I 193 W/m 10,3 km/h (2 Bft)
30.05.2013 08:40 10,1 C 10,1 C 98 % 1006,1 hPa 0,0 l/m 0 min 0 min 0,0 UV-I 200 W/m 0,0 km/h (0 Bft)
30.05.2013 08:42 10,1 C 10,1 C 98 % 1006,0 hPa 0,0 l/m 0 min 0 min 0,0 UV-I 186 W/m 2,6 km/h (1 Bft)
30.05.2013 08:44 10,2 C 10,7 C 97 % 1006,0 hPa 0,0 l/m 0 min 0 min 0,0 UV-I 190 W/m 0,0 km/h (0 Bft)
30.05.2013 08:46 10,2 C 10,7 C 97 % 1006,1 hPa 0,0 l/m 0 min 0 min 0,0 UV-I 171 W/m 0,0 km/h (0 Bft)
30.05.2013 08:48 10,2 C 10,7 C 97 % 1006,1 hPa 0,0 l/m 0 min 0 min 0,0 UV-I 141 W/m 7,7 km/h (2 Bft)
30.05.2013 08:50 10,3 C 10,7 C 97 % 1006,1 hPa 0,0 l/m 0 min 0 min 0,0 UV-I 148 W/m 0,0 km/h (0 Bft)
30.05.2013 08:52 10,3 C 10,1 C 97 % 1006,1 hPa 0,0 l/m 0 min 0 min 0,0 UV-I 149 W/m 7,7 km/h (2 Bft)
30.05.2013 08:54 10,3 C 10,1 C 97 % 1006,1 hPa 0,0 l/m 0 min 0 min 0,0 UV-I 162 W/m 5,1 km/h (1 Bft)
30.05.2013 08:56 10,4 C 10,1 C 97 % 1006,1 hPa 0,0 l/m 0 min 0 min 0,0 UV-I 181 W/m 12,9 km/h (3 Bft)
30.05.2013 08:58 10,4 C 10,7 C 97 % 1006,2 hPa 0,0 l/m 0 min 0 min 0,0 UV-I 207 W/m 10,3 km/h (2 Bft)
30.05.2013 09:00 10,4 C 10,7 C 96 % 1006,2 hPa 0,0 l/m 0 min 0 min 0,0 UV-I 221 W/m 10,3 km/h (2 Bft)
30.05.2013 09:02 10,4 C 10,7 C 96 % 1006,2 hPa 0,0 l/m 0 min 0 min 0,0 UV-I 209 W/m 7,7 km/h (2 Bft)
30.05.2013 09:04 10,4 C 10,7 C 95 % 1006,2 hPa 0,0 l/m 0 min 0 min 0,0 UV-I 227 W/m 10,3 km/h (2 Bft)
30.05.2013 09:06 10,4 C 10,7 C 95 % 1006,2 hPa 0,0 l/m 0 min 0 min 0,0 UV-I 264 W/m 15,4 km/h (3 Bft)
30.05.2013 09:08 10,4 C 10,7 C 95 % 1006,2 hPa 0,0 l/m 0 min 0 min 0,0 UV-I 243 W/m 7,7 km/h (2 Bft)
30.05.2013 09:10 10,5 C 10,7 C 94 % 1006,2 hPa 0,0 l/m 0 min 0 min 0,0 UV-I 223 W/m 12,9 km/h (3 Bft)
30.05.2013 09:12 10,5 C 10,7 C 94 % 1006,2 hPa 0,0 l/m 0 min 0 min 0,0 UV-I 232 W/m 10,3 km/h (2 Bft)
30.05.2013 09:14 10,6 C 11,2 C 94 % 1006,2 hPa 0,0 l/m 0 min 0 min 0,0 UV-I 241 W/m 0,0 km/h (0 Bft)
30.05.2013 09:16 10,6 C 11,2 C 93 % 1006,2 hPa 0,0 l/m 0 min 0 min 0,0 UV-I 258 W/m 2,6 km/h (1 Bft)
30.05.2013 09:18 10,7 C 11,2 C 93 % 1006,2 hPa 0,0 l/m 0 min 0 min 0,0 UV-I 258 W/m 7,7 km/h (2 Bft)
30.05.2013 09:20 10,7 C 11,2 C 93 % 1006,3 hPa 0,0 l/m 0 min 0 min 0,0 UV-I 269 W/m 7,7 km/h (2 Bft)
30.05.2013 09:22 10,8 C 11,2 C 93 % 1006,3 hPa 0,0 l/m 0 min 0 min 0,0 UV-I 250 W/m 12,9 km/h (3 Bft)
30.05.2013 09:24 10,8 C 11,2 C 92 % 1006,3 hPa 0,0 l/m 0 min 0 min 0,0 UV-I 229 W/m 5,1 km/h (1 Bft)
30.05.2013 09:26 10,8 C 11,2 C 92 % 1006,3 hPa 0,0 l/m 0 min 0 min 0,0 UV-I 239 W/m 5,1 km/h (1 Bft)
30.05.2013 09:28 10,9 C 11,2 C 91 % 1006,3 hPa 0,0 l/m 0 min 0 min 0,0 UV-I 281 W/m 7,7 km/h (2 Bft)
30.05.2013 09:30 10,9 C 11,8 C 91 % 1006,3 hPa 0,0 l/m 0 min 0 min 0,5 UV-I 287 W/m 0,0 km/h (0 Bft)
30.05.2013 09:32 11,0 C 11,8 C 91 % 1006,3 hPa 0,0 l/m 0 min 0 min 0,5 UV-I 287 W/m 7,7 km/h (2 Bft)
30.05.2013 09:34 11,1 C 11,8 C 91 % 1006,3 hPa 0,0 l/m 0 min 0 min 0,5 UV-I 267 W/m 10,3 km/h (2 Bft)
30.05.2013 09:36 11,1 C 11,8 C 90 % 1006,3 hPa 0,0 l/m 0 min 0 min 0,5 UV-I 244 W/m 7,7 km/h (2 Bft)
30.05.2013 09:38 11,2 C 11,2 C 90 % 1006,3 hPa 0,0 l/m 0 min 0 min 0,0 UV-I 234 W/m 12,9 km/h (3 Bft)
30.05.2013 09:40 11,2 C 11,2 C 89 % 1006,3 hPa 0,0 l/m 0 min 0 min 0,0 UV-I 227 W/m 5,1 km/h (1 Bft)
30.05.2013 09:42 11,2 C 11,2 C 89 % 1006,3 hPa 0,0 l/m 0 min 0 min 0,5 UV-I 229 W/m 0,0 km/h (0 Bft)
30.05.2013 09:44 11,3 C 11,8 C 89 % 1006,3 hPa 0,0 l/m 0 min 0 min 0,5 UV-I 234 W/m 0,0 km/h (0 Bft)
30.05.2013 09:46 11,3 C 11,2 C 89 % 1006,3 hPa 0,0 l/m 0 min 0 min 0,5 UV-I 250 W/m 10,3 km/h (2 Bft)
30.05.2013 09:48 11,3 C 11,2 C 88 % 1006,3 hPa 0,0 l/m 0 min 0 min 0,6 UV-I 264 W/m 0,0 km/h (0 Bft)
30.05.2013 09:50 11,3 C 11,8 C 87 % 1006,3 hPa 0,0 l/m 0 min 0 min 0,7 UV-I 279 W/m 0,0 km/h (0 Bft)
30.05.2013 09:52 11,4 C 11,8 C 87 % 1006,3 hPa 0,0 l/m 0 min 0 min 0,9 UV-I 311 W/m 7,7 km/h (2 Bft)
30.05.2013 09:54 11,4 C 11,8 C 87 % 1006,3 hPa 0,0 l/m 0 min 0 min 1,0 UV-I 318 W/m 7,7 km/h (2 Bft)
30.05.2013 09:56 11,5 C 11,8 C 87 % 1006,3 hPa 0,0 l/m 0 min 0 min 1,0 UV-I 322 W/m 10,3 km/h (2 Bft)
30.05.2013 09:58 11,6 C 12,3 C 87 % 1006,3 hPa 0,0 l/m 2 min 0 min 1,1 UV-I 353 W/m 15,4 km/h (3 Bft)
30.05.2013 10:00 11,6 C 12,3 C 86 % 1006,3 hPa 0,0 l/m 2 min 0 min 1,1 UV-I 350 W/m 12,9 km/h (3 Bft)
30.05.2013 10:02 11,6 C 12,3 C 86 % 1006,3 hPa 0,0 l/m 0 min 0 min 1,1 UV-I 332 W/m 2,6 km/h (1 Bft)
30.05.2013 10:04 11,7 C 12,9 C 86 % 1006,3 hPa 0,0 l/m 2 min 0 min 1,3 UV-I 396 W/m 0,0 km/h (0 Bft)
30.05.2013 10:06 11,8 C 13,4 C 87 % 1006,3 hPa 0,0 l/m 2 min 0 min 1,3 UV-I 482 W/m 5,1 km/h (1 Bft)
30.05.2013 10:08 11,8 C 13,4 C 86 % 1006,3 hPa 0,0 l/m 0 min 0 min 1,3 UV-I 353 W/m 2,6 km/h (1 Bft)
30.05.2013 10:10 11,9 C 14,0 C 86 % 1006,3 hPa 0,0 l/m 2 min 0 min 1,3 UV-I 390 W/m 7,7 km/h (2 Bft)
30.05.2013 10:12 11,9 C 13,4 C 86 % 1006,3 hPa 0,0 l/m 2 min 0 min 1,6 UV-I 448 W/m 10,3 km/h (2 Bft)
30.05.2013 10:14 12,1 C 14,6 C 86 % 1006,3 hPa 0,0 l/m 2 min 0 min 1,7 UV-I 424 W/m 0,0 km/h (0 Bft)
30.05.2013 10:16 12,2 C 15,1 C 86 % 1006,3 hPa 0,0 l/m 2 min 0 min 2,0 UV-I 503 W/m 0,0 km/h (0 Bft)
30.05.2013 10:18 12,3 C 15,7 C 86 % 1006,4 hPa 0,0 l/m 2 min 0 min 1,4 UV-I 385 W/m 0,0 km/h (0 Bft)
30.05.2013 10:20 12,4 C 15,1 C 86 % 1006,4 hPa 0,0 l/m 2 min 0 min 1,5 UV-I 464 W/m 5,1 km/h (1 Bft)
30.05.2013 10:22 12,5 C 15,7 C 86 % 1006,4 hPa 0,0 l/m 2 min 0 min 1,7 UV-I 550 W/m 7,7 km/h (2 Bft)
30.05.2013 10:24 12,6 C 15,1 C 85 % 1006,4 hPa 0,0 l/m 2 min 0 min 1,5 UV-I 431 W/m 7,7 km/h (2 Bft)
30.05.2013 10:26 12,7 C 15,1 C 85 % 1006,4 hPa 0,0 l/m 2 min 0 min 1,5 UV-I 434 W/m 10,3 km/h (2 Bft)
30.05.2013 10:28 12,8 C 15,1 C 85 % 1006,5 hPa 0,0 l/m 2 min 0 min 1,5 UV-I 439 W/m 5,1 km/h (1 Bft)
30.05.2013 10:30 12,9 C 15,7 C 85 % 1006,4 hPa 0,0 l/m 2 min 0 min 1,6 UV-I 501 W/m 7,7 km/h (2 Bft)
30.05.2013 10:32 13,1 C 15,7 C 85 % 1006,5 hPa 0,0 l/m 2 min 0 min 2,1 UV-I 533 W/m 2,6 km/h (1 Bft)
30.05.2013 10:34 13,3 C 17,9 C 85 % 1006,5 hPa 0,0 l/m 2 min 0 min 2,2 UV-I 657 W/m 7,7 km/h (2 Bft)
30.05.2013 10:36 13,4 C 17,3 C 84 % 1006,5 hPa 0,0 l/m 2 min 0 min 1,4 UV-I 584 W/m 7,7 km/h (2 Bft)
30.05.2013 10:38 13,5 C 15,7 C 83 % 1006,5 hPa 0,0 l/m 0 min 0 min 1,4 UV-I 330 W/m 10,3 km/h (2 Bft)
30.05.2013 10:40 13,6 C 15,7 C 82 % 1006,5 hPa 0,0 l/m 0 min 0 min 2,2 UV-I 309 W/m 10,3 km/h (2 Bft)
30.05.2013 10:42 13,7 C 17,3 C 83 % 1006,5 hPa 0,0 l/m 2 min 0 min 2,8 UV-I 705 W/m 7,7 km/h (2 Bft)
30.05.2013 10:44 13,8 C 17,9 C 82 % 1006,5 hPa 0,0 l/m 2 min 0 min 2,7 UV-I 758 W/m 15,4 km/h (3 Bft)
30.05.2013 10:46 13,9 C 17,3 C 82 % 1006,4 hPa 0,0 l/m 2 min 0 min 2,0 UV-I 494 W/m 12,9 km/h (3 Bft)
30.05.2013 10:48 13,9 C 17,3 C 81 % 1006,5 hPa 0,0 l/m 0 min 0 min 2,6 UV-I 292 W/m 10,3 km/h (2 Bft)
30.05.2013 10:50 14,0 C 19,0 C 80 % 1006,5 hPa 0,0 l/m 2 min 0 min 2,0 UV-I 737 W/m 15,4 km/h (3 Bft)
30.05.2013 10:52 14,0 C 17,9 C 80 % 1006,6 hPa 0,0 l/m 2 min 0 min 2,4 UV-I 737 W/m 2,6 km/h (1 Bft)
30.05.2013 10:54 14,0 C 16,8 C 79 % 1006,5 hPa 0,0 l/m 2 min 0 min 1,7 UV-I 737 W/m 0,0 km/h (0 Bft)
30.05.2013 10:56 14,0 C 16,2 C 79 % 1006,5 hPa 0,0 l/m 0 min 0 min 1,8 UV-I 339 W/m 7,7 km/h (2 Bft)
30.05.2013 10:58 14,0 C 16,2 C 79 % 1006,6 hPa 0,0 l/m 0 min 0 min 1,6 UV-I 322 W/m 10,3 km/h (2 Bft)
30.05.2013 11:00 14,1 C 16,2 C 78 % 1006,7 hPa 0,0 l/m 2 min 0 min 2,2 UV-I 621 W/m 5,1 km/h (1 Bft)
30.05.2013 11:02 14,1 C 17,3 C 77 % 1006,6 hPa 0,0 l/m 2 min 0 min 2,4 UV-I 758 W/m 0,0 km/h (0 Bft)
30.05.2013 11:04 14,2 C 16,2 C 77 % 1006,7 hPa 0,0 l/m 0 min 0 min 1,7 UV-I 362 W/m 7,7 km/h (2 Bft)
30.05.2013 11:06 14,2 C 15,1 C 77 % 1006,7 hPa 0,0 l/m 0 min 0 min 1,7 UV-I 378 W/m 7,7 km/h (2 Bft)
30.05.2013 11:08 14,3 C 15,1 C 77 % 1006,7 hPa 0,0 l/m 0 min 0 min 1,6 UV-I 366 W/m 7,7 km/h (2 Bft)
30.05.2013 11:10 14,3 C 14,6 C 78 % 1006,7 hPa 0,0 l/m 0 min 0 min 1,5 UV-I 345 W/m 10,3 km/h (2 Bft)
30.05.2013 11:12 14,3 C 14,6 C 78 % 1006,7 hPa 0,0 l/m 0 min 0 min 1,4 UV-I 341 W/m 5,1 km/h (1 Bft)
30.05.2013 11:14 14,3 C 14,6 C 78 % 1006,7 hPa 0,0 l/m 0 min 0 min 1,4 UV-I 355 W/m 7,7 km/h (2 Bft)
30.05.2013 11:16 14,3 C 14,6 C 78 % 1006,7 hPa 0,0 l/m 0 min 0 min 1,4 UV-I 362 W/m 7,7 km/h (2 Bft)
30.05.2013 11:18 14,3 C 14,6 C 78 % 1006,8 hPa 0,0 l/m 0 min 0 min 1,4 UV-I 369 W/m 7,7 km/h (2 Bft)
30.05.2013 11:20 14,3 C 14,6 C 78 % 1006,8 hPa 0,0 l/m 0 min 0 min 1,4 UV-I 381 W/m 2,6 km/h (1 Bft)
30.05.2013 11:22 14,2 C 14,6 C 77 % 1006,9 hPa 0,0 l/m 0 min 0 min 1,4 UV-I 376 W/m 10,3 km/h (2 Bft)
30.05.2013 11:24 14,0 C 14,6 C 78 % 1006,9 hPa 0,0 l/m 0 min 0 min 1,3 UV-I 346 W/m 0,0 km/h (0 Bft)
30.05.2013 11:26 13,9 C 14,6 C 79 % 1006,9 hPa 0,0 l/m 0 min 0 min 1,4 UV-I 366 W/m 2,6 km/h (1 Bft)
30.05.2013 11:28 13,6 C 14,6 C 78 % 1006,9 hPa 0,0 l/m 0 min 0 min 1,8 UV-I 415 W/m 0,0 km/h (0 Bft)
30.05.2013 11:30 13,4 C 15,1 C 79 % 1006,9 hPa 0,0 l/m 2 min 0 min 2,0 UV-I 429 W/m 10,3 km/h (2 Bft)
30.05.2013 11:32 13,4 C 15,1 C 79 % 1006,9 hPa 0,0 l/m 2 min 0 min 4,2 UV-I 504 W/m 12,9 km/h (3 Bft)
30.05.2013 11:34 13,6 C 17,3 C 81 % 1006,9 hPa 0,0 l/m 2 min 0 min 4,4 UV-I 504 W/m 10,3 km/h (2 Bft)
30.05.2013 11:36 14,0 C 20,1 C 79 % 1006,9 hPa 0,0 l/m 2 min 0 min 4,4 UV-I 1127 W/m 15,4 km/h (3 Bft)
30.05.2013 11:38 14,3 C 21,2 C 79 % 1006,9 hPa 0,0 l/m 2 min 0 min 2,8 UV-I 923 W/m 15,4 km/h (3 Bft)
30.05.2013 11:40 14,5 C 19,6 C 77 % 1006,9 hPa 0,0 l/m 2 min 0 min 3,1 UV-I 923 W/m 10,3 km/h (2 Bft)
30.05.2013 11:42 14,3 C 17,9 C 74 % 1006,9 hPa 0,0 l/m 0 min 0 min 1,7 UV-I 378 W/m 12,9 km/h (3 Bft)
30.05.2013 11:44 14,2 C 16,8 C 77 % 1006,9 hPa 0,0 l/m 0 min 0 min 1,3 UV-I 348 W/m 15,4 km/h (3 Bft)
30.05.2013 11:46 14,1 C 16,2 C 77 % 1007,0 hPa 0,0 l/m 0 min 0 min 1,2 UV-I 283 W/m 10,3 km/h (2 Bft)
30.05.2013 11:48 14,0 C 15,1 C 76 % 1007,0 hPa 0,0 l/m 0 min 0 min 1,0 UV-I 262 W/m 2,6 km/h (1 Bft)
30.05.2013 11:50 13,6 C 14,6 C 76 % 1007,0 hPa 0,0 l/m 0 min 0 min 0,8 UV-I 241 W/m 2,6 km/h (1 Bft)
30.05.2013 11:52 13,4 C 14,6 C 78 % 1007,1 hPa 0,0 l/m 0 min 0 min 0,8 UV-I 244 W/m 7,7 km/h (2 Bft)
30.05.2013 11:54 13,3 C 14,0 C 79 % 1007,1 hPa 0,0 l/m 0 min 0 min 0,9 UV-I 250 W/m 10,3 km/h (2 Bft)
30.05.2013 11:56 13,2 C 14,0 C 79 % 1007,0 hPa 0,0 l/m 0 min 0 min 1,0 UV-I 276 W/m 12,9 km/h (3 Bft)
30.05.2013 11:58 13,2 C 14,0 C 80 % 1007,0 hPa 0,0 l/m 0 min 0 min 1,1 UV-I 288 W/m 10,3 km/h (2 Bft)
30.05.2013 12:00 13,2 C 14,0 C 80 % 1007,0 hPa 0,0 l/m 0 min 0 min 1,1 UV-I 294 W/m 7,7 km/h (2 Bft)
30.05.2013 12:02 13,3 C 14,0 C 80 % 1007,1 hPa 0,0 l/m 0 min 0 min 1,1 UV-I 299 W/m 12,9 km/h (3 Bft)
30.05.2013 12:04 13,2 C 14,0 C 78 % 1007,1 hPa 0,0 l/m 0 min 0 min 1,2 UV-I 309 W/m 12,9 km/h (3 Bft)
30.05.2013 12:06 13,2 C 14,0 C 79 % 1007,1 hPa 0,0 l/m 0 min 0 min 1,3 UV-I 322 W/m 0,0 km/h (0 Bft)
30.05.2013 12:08 13,2 C 14,6 C 79 % 1007,1 hPa 0,0 l/m 0 min 0 min 1,3 UV-I 330 W/m 7,7 km/h (2 Bft)
30.05.2013 12:10 13,2 C 14,6 C 79 % 1007,0 hPa 0,0 l/m 0 min 0 min 1,4 UV-I 346 W/m 10,3 km/h (2 Bft)
30.05.2013 12:12 13,2 C 14,6 C 79 % 1007,0 hPa 0,0 l/m 0 min 0 min 1,5 UV-I 373 W/m 10,3 km/h (2 Bft)
30.05.2013 12:14 13,3 C 14,6 C 79 % 1007,0 hPa 0,0 l/m 0 min 0 min 1,7 UV-I 422 W/m 7,7 km/h (2 Bft)
30.05.2013 12:16 13,5 C 15,1 C 79 % 1007,1 hPa 0,0 l/m 2 min 0 min 2,2 UV-I 471 W/m 7,7 km/h (2 Bft)
30.05.2013 12:18 13,5 C 16,2 C 78 % 1007,1 hPa 0,0 l/m 2 min 0 min 3,1 UV-I 589 W/m 0,0 km/h (0 Bft)
30.05.2013 12:20 13,8 C 19,0 C 79 % 1007,1 hPa 0,0 l/m 2 min 0 min 5,1 UV-I 1155 W/m 7,7 km/h (2 Bft)
30.05.2013 12:22 14,7 C 22,3 C 80 % 1007,1 hPa 0,0 l/m 2 min 0 min 5,1 UV-I 1192 W/m 15,4 km/h (3 Bft)
30.05.2013 12:24 15,2 C 24,0 C 77 % 1007,1 hPa 0,0 l/m 2 min 0 min 5,0 UV-I 1129 W/m 0,0 km/h (0 Bft)
30.05.2013 12:26 15,4 C 23,4 C 74 % 1007,1 hPa 0,0 l/m 2 min 0 min 2,1 UV-I 1132 W/m 7,7 km/h (2 Bft)
30.05.2013 12:28 15,4 C 20,7 C 72 % 1007,1 hPa 0,0 l/m 0 min 0 min 2,0 UV-I 339 W/m 12,9 km/h (3 Bft)
30.05.2013 12:30 14,9 C 18,4 C 72 % 1007,1 hPa 0,0 l/m 0 min 0 min 1,8 UV-I 323 W/m 20,6 km/h (4 Bft)
30.05.2013 12:32 14,7 C 17,3 C 74 % 1007,2 hPa 0,0 l/m 0 min 0 min 1,3 UV-I 294 W/m 10,3 km/h (2 Bft)
30.05.2013 12:34 14,3 C 16,2 C 74 % 1007,1 hPa 0,0 l/m 0 min 0 min 1,0 UV-I 257 W/m 5,1 km/h (1 Bft)
30.05.2013 12:36 14,2 C 15,7 C 74 % 1007,2 hPa 0,0 l/m 0 min 0 min 0,9 UV-I 234 W/m 0,0 km/h (0 Bft)
30.05.2013 12:38 14,0 C 15,7 C 75 % 1007,1 hPa 0,0 l/m 0 min 0 min 1,4 UV-I 264 W/m 2,6 km/h (1 Bft)
30.05.2013 12:40 14,0 C 16,8 C 75 % 1007,1 hPa 0,0 l/m 0 min 0 min 1,2 UV-I 264 W/m 10,3 km/h (2 Bft)
30.05.2013 12:42 14,0 C 16,2 C 75 % 1007,2 hPa 0,0 l/m 0 min 0 min 1,0 UV-I 269 W/m 10,3 km/h (2 Bft)
30.05.2013 12:44 14,0 C 16,2 C 74 % 1007,2 hPa 0,0 l/m 0 min 0 min 2,3 UV-I 294 W/m 10,3 km/h (2 Bft)
30.05.2013 12:46 14,1 C 15,7 C 75 % 1007,2 hPa 0,0 l/m 0 min 0 min 1,0 UV-I 276 W/m 15,4 km/h (3 Bft)
30.05.2013 12:48 14,2 C 15,7 C 76 % 1007,2 hPa 0,0 l/m 0 min 0 min 0,8 UV-I 237 W/m 7,7 km/h (2 Bft)
30.05.2013 12:50 14,2 C 15,1 C 74 % 1007,2 hPa 0,0 l/m 0 min 0 min 0,7 UV-I 220 W/m 10,3 km/h (2 Bft)
30.05.2013 12:52 14,0 C 14,6 C 75 % 1007,2 hPa 0,0 l/m 0 min 0 min 0,7 UV-I 213 W/m 12,9 km/h (3 Bft)
30.05.2013 12:54 14,0 C 14,6 C 75 % 1007,2 hPa 0,0 l/m 0 min 0 min 0,7 UV-I 211 W/m 10,3 km/h (2 Bft)
30.05.2013 12:56 14,0 C 14,0 C 74 % 1007,2 hPa 0,0 l/m 0 min 0 min 0,7 UV-I 206 W/m 12,9 km/h (3 Bft)
30.05.2013 12:58 13,8 C 14,0 C 74 % 1007,2 hPa 0,0 l/m 0 min 0 min 0,6 UV-I 200 W/m 15,4 km/h (3 Bft)
30.05.2013 13:00 13,7 C 14,0 C 73 % 1007,3 hPa 0,0 l/m 0 min 0 min 0,6 UV-I 204 W/m 12,9 km/h (3 Bft)
30.05.2013 13:02 13,7 C 14,0 C 75 % 1007,3 hPa 0,0 l/m 0 min 0 min 0,7 UV-I 213 W/m 10,3 km/h (2 Bft)
30.05.2013 13:04 13,7 C 14,0 C 75 % 1007,3 hPa 0,0 l/m 0 min 0 min 0,7 UV-I 220 W/m 0,0 km/h (0 Bft)
30.05.2013 13:06 13,7 C 14,0 C 76 % 1007,3 hPa 0,0 l/m 0 min 0 min 0,8 UV-I 227 W/m 7,7 km/h (2 Bft)
30.05.2013 13:08 13,7 C 14,0 C 76 % 1007,3 hPa 0,0 l/m 0 min 0 min 0,8 UV-I 230 W/m 10,3 km/h (2 Bft)
30.05.2013 13:10 13,7 C 14,0 C 75 % 1007,3 hPa 0,0 l/m 0 min 0 min 0,9 UV-I 237 W/m 12,9 km/h (3 Bft)
30.05.2013 13:12 13,7 C 14,0 C 73 % 1007,3 hPa 0,0 l/m 0 min 0 min 1,0 UV-I 258 W/m 7,7 km/h (2 Bft)
30.05.2013 13:14 13,7 C 14,0 C 74 % 1007,3 hPa 0,0 l/m 0 min 0 min 1,1 UV-I 274 W/m 10,3 km/h (2 Bft)
30.05.2013 13:16 13,9 C 14,6 C 76 % 1007,3 hPa 0,0 l/m 0 min 0 min 1,1 UV-I 281 W/m 5,1 km/h (1 Bft)
30.05.2013 13:18 13,9 C 14,6 C 75 % 1007,3 hPa 0,0 l/m 0 min 0 min 1,2 UV-I 281 W/m 12,9 km/h (3 Bft)
30.05.2013 13:20 14,0 C 14,6 C 74 % 1007,3 hPa 0,0 l/m 0 min 0 min 1,2 UV-I 285 W/m 10,3 km/h (2 Bft)
30.05.2013 13:22 14,0 C 14,6 C 75 % 1007,4 hPa 0,0 l/m 0 min 0 min 1,3 UV-I 302 W/m 12,9 km/h (3 Bft)
30.05.2013 13:24 14,0 C 14,6 C 74 % 1007,3 hPa 0,0 l/m 0 min 0 min 1,4 UV-I 315 W/m 7,7 km/h (2 Bft)
30.05.2013 13:26 14,0 C 14,6 C 73 % 1007,3 hPa 0,0 l/m 0 min 0 min 1,4 UV-I 322 W/m 0,0 km/h (0 Bft)
30.05.2013 13:28 14,0 C 14,6 C 74 % 1007,3 hPa 0,0 l/m 0 min 0 min 1,5 UV-I 338 W/m 18,0 km/h (3 Bft)
30.05.2013 13:30 14,0 C 15,1 C 75 % 1007,3 hPa 0,0 l/m 0 min 0 min 1,7 UV-I 355 W/m 12,9 km/h (3 Bft)
30.05.2013 13:32 14,1 C 15,1 C 74 % 1007,3 hPa 0,0 l/m 0 min 0 min 1,8 UV-I 369 W/m 15,4 km/h (3 Bft)
30.05.2013 13:34 14,1 C 15,1 C 73 % 1007,4 hPa 0,0 l/m 0 min 0 min 1,8 UV-I 367 W/m 7,7 km/h (2 Bft)
30.05.2013 13:36 14,2 C 15,7 C 74 % 1007,5 hPa 0,0 l/m 0 min 0 min 1,8 UV-I 369 W/m 10,3 km/h (2 Bft)
30.05.2013 13:38 14,3 C 15,7 C 75 % 1007,5 hPa 0,0 l/m 0 min 0 min 1,9 UV-I 383 W/m 0,0 km/h (0 Bft)
30.05.2013 13:40 14,4 C 15,7 C 75 % 1007,6 hPa 0,0 l/m 0 min 0 min 1,9 UV-I 397 W/m 2,6 km/h (1 Bft)
30.05.2013 13:42 14,5 C 16,2 C 74 % 1007,6 hPa 0,0 l/m 0 min 0 min 2,0 UV-I 401 W/m 10,3 km/h (2 Bft)
30.05.2013 13:44 14,5 C 16,2 C 72 % 1007,6 hPa 0,0 l/m 0 min 0 min 2,1 UV-I 415 W/m 10,3 km/h (2 Bft)
30.05.2013 13:46 14,5 C 16,2 C 72 % 1007,6 hPa 0,0 l/m 0 min 0 min 2,1 UV-I 413 W/m 2,6 km/h (1 Bft)
30.05.2013 13:48 14,6 C 16,2 C 72 % 1007,6 hPa 0,0 l/m 0 min 0 min 2,0 UV-I 397 W/m 0,0 km/h (0 Bft)
30.05.2013 13:50 14,6 C 16,2 C 71 % 1007,6 hPa 0,0 l/m 0 min 0 min 2,0 UV-I 381 W/m 0,0 km/h (0 Bft)
30.05.2013 13:52 14,6 C 16,2 C 72 % 1007,6 hPa 0,0 l/m 0 min 0 min 2,0 UV-I 380 W/m 20,6 km/h (4 Bft)
30.05.2013 13:54 14,6 C 16,2 C 72 % 1007,6 hPa 0,0 l/m 0 min 0 min 1,9 UV-I 364 W/m 12,9 km/h (3 Bft)
30.05.2013 13:56 14,5 C 15,7 C 72 % 1007,7 hPa 0,0 l/m 0 min 0 min 1,8 UV-I 343 W/m 0,0 km/h (0 Bft)
30.05.2013 13:58 14,5 C 15,7 C 72 % 1007,7 hPa 0,0 l/m 0 min 0 min 1,7 UV-I 320 W/m 10,3 km/h (2 Bft)
30.05.2013 14:00 14,5 C 16,2 C 73 % 1007,7 hPa 0,0 l/m 0 min 0 min 1,6 UV-I 315 W/m 7,7 km/h (2 Bft)
30.05.2013 14:02 14,6 C 15,7 C 72 % 1007,8 hPa 0,0 l/m 0 min 0 min 1,6 UV-I 315 W/m 20,6 km/h (4 Bft)
30.05.2013 14:04 14,6 C 15,7 C 71 % 1007,7 hPa 0,0 l/m 0 min 0 min 1,5 UV-I 311 W/m 10,3 km/h (2 Bft)
30.05.2013 14:06 14,6 C 15,7 C 72 % 1007,7 hPa 0,0 l/m 0 min 0 min 1,5 UV-I 311 W/m 0,0 km/h (0 Bft)
30.05.2013 14:08 14,7 C 15,7 C 73 % 1007,8 hPa 0,0 l/m 0 min 0 min 1,5 UV-I 318 W/m 2,6 km/h (1 Bft)
30.05.2013 14:10 14,7 C 15,7 C 72 % 1007,8 hPa 0,0 l/m 0 min 0 min 1,5 UV-I 327 W/m 10,3 km/h (2 Bft)
30.05.2013 14:12 14,7 C 15,7 C 72 % 1007,7 hPa 0,0 l/m 0 min 0 min 1,5 UV-I 330 W/m 0,0 km/h (0 Bft)
30.05.2013 14:14 14,7 C 15,7 C 73 % 1007,8 hPa 0,0 l/m 0 min 0 min 1,7 UV-I 339 W/m 12,9 km/h (3 Bft)
30.05.2013 14:16 14,7 C 15,7 C 73 % 1007,8 hPa 0,0 l/m 0 min 0 min 1,6 UV-I 345 W/m 5,1 km/h (1 Bft)
30.05.2013 14:18 14,8 C 15,7 C 72 % 1007,8 hPa 0,0 l/m 0 min 0 min 1,5 UV-I 330 W/m 18,0 km/h (3 Bft)
30.05.2013 14:20 14,8 C 15,7 C 73 % 1007,9 hPa 0,0 l/m 0 min 0 min 1,5 UV-I 329 W/m 10,3 km/h (2 Bft)
30.05.2013 14:22 14,8 C 15,7 C 73 % 1007,9 hPa 0,0 l/m 0 min 0 min 2,0 UV-I 415 W/m 10,3 km/h (2 Bft)
30.05.2013 14:24 14,8 C 15,7 C 71 % 1007,9 hPa 0,0 l/m 0 min 0 min 1,5 UV-I 457 W/m 15,4 km/h (3 Bft)
30.05.2013 14:26 14,8 C 15,7 C 72 % 1007,9 hPa 0,0 l/m 0 min 0 min 1,4 UV-I 295 W/m 10,3 km/h (2 Bft)
30.05.2013 14:28 14,8 C 15,7 C 71 % 1007,9 hPa 0,0 l/m 0 min 0 min 1,3 UV-I 295 W/m 10,3 km/h (2 Bft)
30.05.2013 14:30 14,8 C 15,7 C 71 % 1007,9 hPa 0,0 l/m 0 min 0 min 1,3 UV-I 299 W/m 5,1 km/h (1 Bft)
30.05.2013 14:32 14,8 C 15,7 C 70 % 1007,9 hPa 0,0 l/m 0 min 0 min 1,3 UV-I 308 W/m 10,3 km/h (2 Bft)
30.05.2013 14:34 14,8 C 15,7 C 71 % 1008,0 hPa 0,0 l/m 0 min 0 min 1,6 UV-I 362 W/m 12,9 km/h (3 Bft)
30.05.2013 14:36 14,8 C 15,7 C 72 % 1008,0 hPa 0,0 l/m 0 min 0 min 1,7 UV-I 362 W/m 15,4 km/h (3 Bft)
30.05.2013 14:38 14,8 C 15,7 C 72 % 1008,0 hPa 0,0 l/m 0 min 0 min 1,8 UV-I 378 W/m 12,9 km/h (3 Bft)
30.05.2013 14:40 15,0 C 16,2 C 72 % 1007,9 hPa 0,0 l/m 2 min 0 min 4,6 UV-I 1116 W/m 15,4 km/h (3 Bft)
30.05.2013 14:42 15,5 C 17,3 C 69 % 1007,9 hPa 0,0 l/m 2 min 0 min 4,8 UV-I 1083 W/m 10,3 km/h (2 Bft)
30.05.2013 14:44 15,9 C 18,4 C 71 % 1007,9 hPa 0,0 l/m 2 min 0 min 4,8 UV-I 1056 W/m 15,4 km/h (3 Bft)
30.05.2013 14:46 16,3 C 18,4 C 69 % 1007,9 hPa 0,0 l/m 2 min 0 min 2,6 UV-I 1079 W/m 18,0 km/h (3 Bft)
30.05.2013 14:48 16,3 C 18,4 C 67 % 1008,0 hPa 0,0 l/m 2 min 0 min 4,8 UV-I 1111 W/m 18,0 km/h (3 Bft)
30.05.2013 14:50 16,5 C 18,4 C 69 % 1008,0 hPa 0,0 l/m 2 min 0 min 4,2 UV-I 1035 W/m 20,6 km/h (4 Bft)
30.05.2013 14:52 16,6 C 18,4 C 67 % 1007,9 hPa 0,0 l/m 2 min 0 min 3,4 UV-I 865 W/m 12,9 km/h (3 Bft)
30.05.2013 14:54 16,6 C 18,4 C 68 % 1007,9 hPa 0,0 l/m 2 min 0 min 3,4 UV-I 661 W/m 15,4 km/h (3 Bft)
30.05.2013 14:56 16,4 C 17,9 C 66 % 1007,9 hPa 0,0 l/m 2 min 0 min 4,4 UV-I 714 W/m 12,9 km/h (3 Bft)
30.05.2013 14:58 16,2 C 17,9 C 66 % 1008,0 hPa 0,0 l/m 2 min 0 min 3,1 UV-I 1049 W/m 15,4 km/h (3 Bft)
30.05.2013 15:00 16,2 C 17,3 C 69 % 1007,9 hPa 0,0 l/m 0 min 0 min 2,4 UV-I 378 W/m 15,4 km/h (3 Bft)
30.05.2013 15:02 16,1 C 17,3 C 68 % 1008,0 hPa 0,0 l/m 0 min 0 min 3,5 UV-I 399 W/m 20,6 km/h (4 Bft)
30.05.2013 15:04 15,9 C 17,3 C 69 % 1008,0 hPa 0,0 l/m 2 min 0 min 2,7 UV-I 473 W/m 10,3 km/h (2 Bft)
30.05.2013 15:06 15,9 C 17,3 C 69 % 1008,0 hPa 0,0 l/m 2 min 0 min 2,8 UV-I 480 W/m 15,4 km/h (3 Bft)
30.05.2013 15:08 15,8 C 17,3 C 68 % 1008,1 hPa 0,0 l/m 2 min 0 min 3,1 UV-I 492 W/m 20,6 km/h (4 Bft)
30.05.2013 15:10 15,7 C 17,3 C 69 % 1008,0 hPa 0,0 l/m 2 min 0 min 2,6 UV-I 466 W/m 12,9 km/h (3 Bft)
30.05.2013 15:12 15,6 C 16,8 C 70 % 1008,1 hPa 0,0 l/m 2 min 0 min 2,4 UV-I 450 W/m 15,4 km/h (3 Bft)
30.05.2013 15:14 15,6 C 17,3 C 69 % 1008,1 hPa 0,0 l/m 2 min 0 min 2,4 UV-I 478 W/m 20,6 km/h (4 Bft)
30.05.2013 15:16 15,5 C 17,3 C 67 % 1008,0 hPa 0,0 l/m 2 min 0 min 2,5 UV-I 480 W/m 7,7 km/h (2 Bft)
30.05.2013 15:18 15,7 C 17,3 C 68 % 1008,0 hPa 0,0 l/m 2 min 0 min 2,5 UV-I 497 W/m 12,9 km/h (3 Bft)
30.05.2013 15:20 15,7 C 17,3 C 68 % 1008,0 hPa 0,0 l/m 2 min 0 min 2,4 UV-I 499 W/m 20,6 km/h (4 Bft)
30.05.2013 15:22 15,6 C 17,3 C 68 % 1008,0 hPa 0,0 l/m 2 min 0 min 2,6 UV-I 531 W/m 7,7 km/h (2 Bft)
30.05.2013 15:24 15,7 C 17,3 C 67 % 1008,1 hPa 0,0 l/m 2 min 0 min 2,4 UV-I 529 W/m 12,9 km/h (3 Bft)
30.05.2013 15:26 15,8 C 17,3 C 68 % 1008,1 hPa 0,0 l/m 0 min 0 min 2,0 UV-I 427 W/m 10,3 km/h (2 Bft)
30.05.2013 15:28 15,9 C 17,9 C 69 % 1008,2 hPa 0,0 l/m 0 min 0 min 2,0 UV-I 429 W/m 7,7 km/h (2 Bft)
30.05.2013 15:30 15,9 C 17,3 C 68 % 1008,3 hPa 0,0 l/m 2 min 0 min 2,1 UV-I 445 W/m 12,9 km/h (3 Bft)
30.05.2013 15:32 15,9 C 17,9 C 68 % 1008,3 hPa 0,0 l/m 2 min 0 min 2,3 UV-I 476 W/m 15,4 km/h (3 Bft)
30.05.2013 15:34 15,9 C 17,3 C 68 % 1008,2 hPa 0,0 l/m 2 min 0 min 2,2 UV-I 487 W/m 10,3 km/h (2 Bft)
30.05.2013 15:36 15,9 C 17,3 C 66 % 1008,2 hPa 0,0 l/m 2 min 0 min 2,2 UV-I 496 W/m 2,6 km/h (1 Bft)
30.05.2013 15:38 15,7 C 17,3 C 67 % 1008,2 hPa 0,0 l/m 2 min 0 min 2,1 UV-I 462 W/m 10,3 km/h (2 Bft)
30.05.2013 15:40 15,7 C 17,3 C 69 % 1008,3 hPa 0,0 l/m 2 min 0 min 2,0 UV-I 446 W/m 7,7 km/h (2 Bft)
30.05.2013 15:42 15,7 C 17,3 C 69 % 1008,2 hPa 0,0 l/m 2 min 0 min 2,0 UV-I 439 W/m 2,6 km/h (1 Bft)
30.05.2013 15:44 15,7 C 17,3 C 67 % 1008,2 hPa 0,0 l/m 2 min 0 min 2,1 UV-I 450 W/m 10,3 km/h (2 Bft)
30.05.2013 15:46 15,8 C 17,9 C 69 % 1008,2 hPa 0,0 l/m 2 min 0 min 2,1 UV-I 455 W/m 10,3 km/h (2 Bft)
30.05.2013 15:48 15,8 C 17,9 C 68 % 1008,1 hPa 0,0 l/m 2 min 0 min 2,2 UV-I 497 W/m 7,7 km/h (2 Bft)
30.05.2013 15:50 16,0 C 17,9 C 70 % 1008,2 hPa 0,0 l/m 2 min 0 min 2,0 UV-I 432 W/m 12,9 km/h (3 Bft)
30.05.2013 15:52 16,1 C 17,3 C 67 % 1008,1 hPa 0,0 l/m 2 min 0 min 1,9 UV-I 422 W/m 7,7 km/h (2 Bft)
30.05.2013 15:54 15,9 C 17,3 C 67 % 1008,2 hPa 0,0 l/m 2 min 0 min 1,9 UV-I 422 W/m 10,3 km/h (2 Bft)
30.05.2013 15:56 15,9 C 17,9 C 68 % 1008,2 hPa 0,0 l/m 2 min 0 min 2,0 UV-I 432 W/m 7,7 km/h (2 Bft)
30.05.2013 15:58 15,8 C 17,9 C 68 % 1008,1 hPa 0,0 l/m 2 min 0 min 2,3 UV-I 452 W/m 12,9 km/h (3 Bft)
30.05.2013 16:00 15,8 C 17,9 C 67 % 1008,1 hPa 0,0 l/m 2 min 0 min 1,9 UV-I 417 W/m 15,4 km/h (3 Bft)
30.05.2013 16:02 15,7 C 17,9 C 69 % 1008,1 hPa 0,0 l/m 0 min 0 min 1,9 UV-I 401 W/m 12,9 km/h (3 Bft)
30.05.2013 16:04 15,7 C 17,3 C 68 % 1008,1 hPa 0,0 l/m 0 min 0 min 1,8 UV-I 403 W/m 5,1 km/h (1 Bft)
30.05.2013 16:06 15,7 C 17,9 C 70 % 1008,1 hPa 0,0 l/m 2 min 0 min 1,8 UV-I 413 W/m 18,0 km/h (3 Bft)
30.05.2013 16:08 15,8 C 17,9 C 69 % 1008,1 hPa 0,0 l/m 2 min 0 min 1,9 UV-I 450 W/m 10,3 km/h (2 Bft)
30.05.2013 16:10 15,8 C 17,3 C 69 % 1008,1 hPa 0,0 l/m 2 min 0 min 2,0 UV-I 482 W/m 7,7 km/h (2 Bft)
30.05.2013 16:12 15,9 C 17,9 C 70 % 1008,1 hPa 0,0 l/m 2 min 0 min 1,8 UV-I 439 W/m 0,0 km/h (0 Bft)
30.05.2013 16:14 16,1 C 17,9 C 71 % 1008,1 hPa 0,0 l/m 2 min 0 min 1,7 UV-I 417 W/m 12,9 km/h (3 Bft)
30.05.2013 16:16 15,9 C 17,9 C 69 % 1008,2 hPa 0,0 l/m 2 min 0 min 1,8 UV-I 420 W/m 12,9 km/h (3 Bft)
30.05.2013 16:18 15,9 C 17,3 C 68 % 1008,1 hPa 0,0 l/m 2 min 0 min 1,7 UV-I 399 W/m 7,7 km/h (2 Bft)
30.05.2013 16:20 15,8 C 17,3 C 67 % 1008,1 hPa 0,0 l/m 2 min 0 min 1,7 UV-I 403 W/m 7,7 km/h (2 Bft)
30.05.2013 16:22 15,7 C 17,3 C 68 % 1008,1 hPa 0,0 l/m 2 min 0 min 1,6 UV-I 396 W/m 10,3 km/h (2 Bft)
30.05.2013 16:24 15,7 C 17,3 C 69 % 1008,2 hPa 0,0 l/m 2 min 0 min 1,7 UV-I 445 W/m 12,9 km/h (3 Bft)
30.05.2013 16:26 15,7 C 17,3 C 69 % 1008,1 hPa 0,0 l/m 2 min 0 min 1,6 UV-I 406 W/m 12,9 km/h (3 Bft)
30.05.2013 16:28 15,6 C 17,3 C 69 % 1008,1 hPa 0,0 l/m 0 min 0 min 1,4 UV-I 369 W/m 10,3 km/h (2 Bft)
30.05.2013 16:30 15,7 C 17,3 C 69 % 1008,2 hPa 0,0 l/m 0 min 0 min 1,3 UV-I 341 W/m 12,9 km/h (3 Bft)
30.05.2013 16:32 15,7 C 16,8 C 68 % 1008,2 hPa 0,0 l/m 0 min 0 min 1,3 UV-I 343 W/m 5,1 km/h (1 Bft)
30.05.2013 16:34 15,6 C 17,3 C 67 % 1008,1 hPa 0,0 l/m 0 min 0 min 1,3 UV-I 350 W/m 5,1 km/h (1 Bft)
30.05.2013 16:36 15,6 C 17,3 C 69 % 1008,2 hPa 0,0 l/m 0 min 0 min 1,3 UV-I 352 W/m 10,3 km/h (2 Bft)
30.05.2013 16:38 15,7 C 17,3 C 69 % 1008,2 hPa 0,0 l/m 0 min 0 min 1,2 UV-I 339 W/m 5,1 km/h (1 Bft)
30.05.2013 16:40 15,7 C 17,3 C 68 % 1008,3 hPa 0,0 l/m 0 min 0 min 1,2 UV-I 334 W/m 12,9 km/h (3 Bft)
30.05.2013 16:42 15,7 C 17,3 C 67 % 1008,3 hPa 0,0 l/m 0 min 0 min 1,1 UV-I 332 W/m 10,3 km/h (2 Bft)
30.05.2013 16:44 15,6 C 16,8 C 68 % 1008,3 hPa 0,0 l/m 0 min 0 min 1,1 UV-I 334 W/m 7,7 km/h (2 Bft)
30.05.2013 16:46 15,6 C 16,8 C 67 % 1008,3 hPa 0,0 l/m 0 min 0 min 1,1 UV-I 334 W/m 5,1 km/h (1 Bft)
30.05.2013 16:48 15,4 C 16,8 C 68 % 1008,3 hPa 0,0 l/m 0 min 0 min 1,1 UV-I 341 W/m 12,9 km/h (3 Bft)
30.05.2013 16:50 15,4 C 16,8 C 67 % 1008,4 hPa 0,0 l/m 0 min 0 min 1,1 UV-I 332 W/m 2,6 km/h (1 Bft)
30.05.2013 16:52 15,5 C 16,8 C 70 % 1008,4 hPa 0,0 l/m 0 min 0 min 1,0 UV-I 315 W/m 7,7 km/h (2 Bft)
30.05.2013 16:54 15,6 C 16,8 C 69 % 1008,4 hPa 0,0 l/m 0 min 0 min 0,9 UV-I 301 W/m 0,0 km/h (0 Bft)
30.05.2013 16:56 15,7 C 16,8 C 67 % 1008,4 hPa 0,0 l/m 0 min 0 min 0,9 UV-I 295 W/m 10,3 km/h (2 Bft)
30.05.2013 16:58 15,7 C 16,8 C 66 % 1008,4 hPa 0,0 l/m 0 min 0 min 0,9 UV-I 292 W/m 2,6 km/h (1 Bft)
30.05.2013 17:00 15,6 C 16,8 C 67 % 1008,4 hPa 0,0 l/m 0 min 0 min 1,0 UV-I 313 W/m 12,9 km/h (3 Bft)
30.05.2013 17:02 15,4 C 16,8 C 66 % 1008,4 hPa 0,0 l/m 0 min 0 min 1,0 UV-I 316 W/m 10,3 km/h (2 Bft)
30.05.2013 17:04 15,5 C 16,8 C 68 % 1008,4 hPa 0,0 l/m 0 min 0 min 1,0 UV-I 318 W/m 10,3 km/h (2 Bft)
30.05.2013 17:06 15,6 C 16,8 C 65 % 1008,4 hPa 0,0 l/m 0 min 0 min 1,0 UV-I 318 W/m 0,0 km/h (0 Bft)
30.05.2013 17:08 15,6 C 17,3 C 66 % 1008,4 hPa 0,0 l/m 0 min 0 min 1,0 UV-I 330 W/m 7,7 km/h (2 Bft)
30.05.2013 17:10 15,6 C 17,3 C 67 % 1008,4 hPa 0,0 l/m 2 min 0 min 1,1 UV-I 359 W/m 7,7 km/h (2 Bft)
30.05.2013 17:12 15,7 C 17,3 C 66 % 1008,4 hPa 0,0 l/m 2 min 0 min 1,0 UV-I 364 W/m 7,7 km/h (2 Bft)
30.05.2013 17:14 15,7 C 16,8 C 67 % 1008,4 hPa 0,0 l/m 2 min 0 min 1,0 UV-I 341 W/m 7,7 km/h (2 Bft)
30.05.2013 17:16 15,7 C 16,8 C 65 % 1008,4 hPa 0,0 l/m 0 min 0 min 0,9 UV-I 311 W/m 10,3 km/h (2 Bft)
30.05.2013 17:18 15,7 C 16,8 C 65 % 1008,4 hPa 0,0 l/m 2 min 0 min 1,0 UV-I 345 W/m 12,9 km/h (3 Bft)
30.05.2013 17:20 15,7 C 16,8 C 67 % 1008,4 hPa 0,0 l/m 2 min 0 min 1,0 UV-I 348 W/m 0,0 km/h (0 Bft)
30.05.2013 17:22 15,7 C 16,8 C 64 % 1008,4 hPa 0,0 l/m 2 min 0 min 0,9 UV-I 339 W/m 10,3 km/h (2 Bft)
30.05.2013 17:24 15,7 C 16,8 C 65 % 1008,4 hPa 0,0 l/m 2 min 0 min 0,9 UV-I 332 W/m 5,1 km/h (1 Bft)
30.05.2013 17:26 15,6 C 16,8 C 67 % 1008,4 hPa 0,0 l/m 0 min 0 min 0,7 UV-I 308 W/m 0,0 km/h (0 Bft)
30.05.2013 17:28 15,6 C 16,8 C 66 % 1008,4 hPa 0,0 l/m 0 min 0 min 0,7 UV-I 285 W/m 7,7 km/h (2 Bft)
30.05.2013 17:30 15,6 C 16,8 C 67 % 1008,4 hPa 0,0 l/m 0 min 0 min 0,6 UV-I 274 W/m 12,9 km/h (3 Bft)
30.05.2013 17:32 15,6 C 16,2 C 66 % 1008,4 hPa 0,0 l/m 0 min 0 min 0,6 UV-I 281 W/m 12,9 km/h (3 Bft)
30.05.2013 17:34 15,5 C 16,2 C 66 % 1008,3 hPa 0,0 l/m 0 min 0 min 0,6 UV-I 287 W/m 7,7 km/h (2 Bft)
30.05.2013 17:36 15,6 C 16,2 C 69 % 1008,3 hPa 0,0 l/m 0 min 0 min 0,6 UV-I 287 W/m 0,0 km/h (0 Bft)
30.05.2013 17:38 15,7 C 16,8 C 67 % 1008,3 hPa 0,0 l/m 0 min 0 min 0,5 UV-I 281 W/m 5,1 km/h (1 Bft)
30.05.2013 17:40 15,8 C 16,8 C 68 % 1008,3 hPa 0,0 l/m 0 min 0 min 0,5 UV-I 248 W/m 12,9 km/h (3 Bft)
30.05.2013 17:42 15,7 C 16,2 C 68 % 1008,3 hPa 0,0 l/m 0 min 0 min 0,5 UV-I 248 W/m 7,7 km/h (2 Bft)
30.05.2013 17:44 15,6 C 16,2 C 66 % 1008,3 hPa 0,0 l/m 0 min 0 min 0,5 UV-I 250 W/m 7,7 km/h (2 Bft)
30.05.2013 17:46 15,6 C 16,2 C 67 % 1008,2 hPa 0,0 l/m 0 min 0 min 0,5 UV-I 257 W/m 0,0 km/h (0 Bft)
30.05.2013 17:48 15,7 C 16,8 C 69 % 1008,3 hPa 0,0 l/m 0 min 0 min 0,6 UV-I 246 W/m 5,1 km/h (1 Bft)
30.05.2013 17:50 15,6 C 16,2 C 68 % 1008,2 hPa 0,0 l/m 0 min 0 min 0,6 UV-I 230 W/m 0,0 km/h (0 Bft)
30.05.2013 17:52 15,4 C 16,2 C 67 % 1008,2 hPa 0,0 l/m 0 min 0 min 0,6 UV-I 220 W/m 5,1 km/h (1 Bft)
30.05.2013 17:54 15,5 C 15,7 C 68 % 1008,1 hPa 0,0 l/m 2 min 0 min 1,1 UV-I 568 W/m 12,9 km/h (3 Bft)
30.05.2013 17:56 15,6 C 15,7 C 67 % 1008,1 hPa 0,0 l/m 2 min 0 min 1,1 UV-I 543 W/m 12,9 km/h (3 Bft)
30.05.2013 17:58 15,7 C 15,7 C 67 % 1008,1 hPa 0,0 l/m 2 min 0 min 1,0 UV-I 504 W/m 12,9 km/h (3 Bft)
30.05.2013 18:00 15,6 C 15,1 C 65 % 1008,1 hPa 0,0 l/m 2 min 0 min 1,0 UV-I 506 W/m 10,3 km/h (2 Bft)
30.05.2013 18:02 15,7 C 15,1 C 67 % 1008,1 hPa 0,0 l/m 2 min 0 min 1,0 UV-I 501 W/m 15,4 km/h (3 Bft)
30.05.2013 18:04 15,7 C 15,1 C 67 % 1008,1 hPa 0,0 l/m 2 min 0 min 0,9 UV-I 471 W/m 12,9 km/h (3 Bft)
30.05.2013 18:06 15,7 C 15,1 C 67 % 1008,1 hPa 0,0 l/m 2 min 0 min 0,9 UV-I 464 W/m 12,9 km/h (3 Bft)
30.05.2013 18:08 15,7 C 14,6 C 66 % 1008,2 hPa 0,0 l/m 2 min 0 min 0,9 UV-I 475 W/m 10,3 km/h (2 Bft)
30.05.2013 18:10 15,7 C 14,6 C 67 % 1008,2 hPa 0,0 l/m 2 min 0 min 0,5 UV-I 459 W/m 2,6 km/h (1 Bft)
30.05.2013 18:12 15,7 C 15,1 C 67 % 1008,1 hPa 0,0 l/m 2 min 0 min 0,7 UV-I 455 W/m 10,3 km/h (2 Bft)
30.05.2013 18:14 15,8 C 15,1 C 66 % 1008,1 hPa 0,0 l/m 2 min 0 min 0,5 UV-I 373 W/m 5,1 km/h (1 Bft)
30.05.2013 18:16 15,8 C 15,1 C 65 % 1008,2 hPa 0,0 l/m 0 min 0 min 0,5 UV-I 218 W/m 2,6 km/h (1 Bft)
30.05.2013 18:18 15,6 C 15,1 C 64 % 1008,1 hPa 0,0 l/m 0 min 0 min 0,0 UV-I 220 W/m 0,0 km/h (0 Bft)
30.05.2013 18:20 15,4 C 15,1 C 67 % 1008,1 hPa 0,0 l/m 2 min 0 min 0,0 UV-I 255 W/m 5,1 km/h (1 Bft)
30.05.2013 18:22 15,3 C 15,1 C 66 % 1008,1 hPa 0,0 l/m 2 min 0 min 0,0 UV-I 420 W/m 2,6 km/h (1 Bft)
30.05.2013 18:24 15,4 C 15,1 C 65 % 1008,1 hPa 0,0 l/m 2 min 0 min 0,0 UV-I 415 W/m 0,0 km/h (0 Bft)
30.05.2013 18:26 15,4 C 15,1 C 65 % 1008,1 hPa 0,0 l/m 2 min 0 min 0,0 UV-I 316 W/m 2,6 km/h (1 Bft)
30.05.2013 18:28 15,5 C 15,1 C 68 % 1008,2 hPa 0,0 l/m 0 min 0 min 0,0 UV-I 186 W/m 2,6 km/h (1 Bft)
30.05.2013 18:30 15,6 C 15,7 C 67 % 1008,1 hPa 0,0 l/m 0 min 0 min 0,0 UV-I 186 W/m 2,6 km/h (1 Bft)
30.05.2013 18:32 15,5 C 15,1 C 65 % 1008,1 hPa 0,0 l/m 0 min 0 min 0,0 UV-I 188 W/m 2,6 km/h (1 Bft)
30.05.2013 18:34 15,4 C 15,1 C 64 % 1008,1 hPa 0,0 l/m 0 min 0 min 0,0 UV-I 204 W/m 0,0 km/h (0 Bft)
30.05.2013 18:36 15,3 C 15,7 C 65 % 1008,1 hPa 0,0 l/m 0 min 0 min 0,0 UV-I 207 W/m 0,0 km/h (0 Bft)
30.05.2013 18:38 15,4 C 15,7 C 66 % 1008,2 hPa 0,0 l/m 0 min 0 min 0,0 UV-I 200 W/m 0,0 km/h (0 Bft)
30.05.2013 18:40 15,4 C 15,7 C 64 % 1008,2 hPa 0,0 l/m 0 min 0 min 0,0 UV-I 185 W/m 0,0 km/h (0 Bft)
30.05.2013 18:42 15,4 C 15,1 C 63 % 1008,2 hPa 0,0 l/m 0 min 0 min 0,0 UV-I 179 W/m 5,1 km/h (1 Bft)
30.05.2013 18:44 15,4 C 15,1 C 64 % 1008,3 hPa 0,0 l/m 0 min 0 min 0,0 UV-I 165 W/m 5,1 km/h (1 Bft)
30.05.2013 18:46 15,4 C 15,1 C 64 % 1008,3 hPa 0,0 l/m 0 min 0 min 0,0 UV-I 146 W/m 0,0 km/h (0 Bft)
30.05.2013 18:48 15,3 C 15,1 C 64 % 1008,4 hPa 0,0 l/m 0 min 0 min 0,0 UV-I 139 W/m 0,0 km/h (0 Bft)
30.05.2013 18:50 15,2 C 15,1 C 65 % 1008,4 hPa 0,0 l/m 0 min 0 min 0,0 UV-I 127 W/m 0,0 km/h (0 Bft)
30.05.2013 18:52 15,1 C 15,1 C 64 % 1008,4 hPa 0,0 l/m 0 min 0 min 0,0 UV-I 116 W/m 0,0 km/h (0 Bft)
30.05.2013 18:54 15,1 C 15,1 C 65 % 1008,4 hPa 0,0 l/m 0 min 0 min 0,0 UV-I 114 W/m 5,1 km/h (1 Bft)
30.05.2013 18:56 15,2 C 14,6 C 66 % 1008,5 hPa 0,0 l/m 0 min 0 min 0,0 UV-I 104 W/m 5,1 km/h (1 Bft)
30.05.2013 18:58 15,2 C 14,6 C 68 % 1008,5 hPa 0,0 l/m 0 min 0 min 0,0 UV-I 98 W/m 2,6 km/h (1 Bft)
30.05.2013 19:00 15,2 C 14,6 C 65 % 1008,5 hPa 0,0 l/m 0 min 0 min 0,0 UV-I 95 W/m 0,0 km/h (0 Bft)
30.05.2013 19:02 15,2 C 14,6 C 65 % 1008,4 hPa 0,0 l/m 0 min 0 min 0,0 UV-I 95 W/m 0,0 km/h (0 Bft)
30.05.2013 19:04 15,2 C 14,6 C 64 % 1008,5 hPa 0,0 l/m 0 min 0 min 0,0 UV-I 88 W/m 7,7 km/h (2 Bft)
30.05.2013 19:06 15,1 C 14,6 C 64 % 1008,6 hPa 0,0 l/m 0 min 0 min 0,0 UV-I 88 W/m 2,6 km/h (1 Bft)
30.05.2013 19:08 15,1 C 14,6 C 65 % 1008,5 hPa 0,0 l/m 0 min 0 min 0,0 UV-I 86 W/m 0,0 km/h (0 Bft)
30.05.2013 19:10 15,1 C 14,6 C 69 % 1008,5 hPa 0,0 l/m 0 min 0 min 0,0 UV-I 88 W/m 0,0 km/h (0 Bft)
30.05.2013 19:12 15,1 C 14,6 C 66 % 1008,5 hPa 0,0 l/m 0 min 0 min 0,0 UV-I 88 W/m 0,0 km/h (0 Bft)
30.05.2013 19:14 15,0 C 14,6 C 66 % 1008,5 hPa 0,0 l/m 0 min 0 min 0,0 UV-I 84 W/m 0,0 km/h (0 Bft)
30.05.2013 19:16 15,0 C 14,6 C 65 % 1008,6 hPa 0,0 l/m 0 min 0 min 0,0 UV-I 83 W/m 7,7 km/h (2 Bft)
30.05.2013 19:18 14,9 C 14,6 C 66 % 1008,6 hPa 0,0 l/m 0 min 0 min 0,0 UV-I 81 W/m 0,0 km/h (0 Bft)
30.05.2013 19:20 14,9 C 14,6 C 66 % 1008,7 hPa 0,0 l/m 0 min 0 min 0,0 UV-I 81 W/m 0,0 km/h (0 Bft)
30.05.2013 19:22 14,9 C 14,6 C 66 % 1008,6 hPa 0,0 l/m 0 min 0 min 0,0 UV-I 83 W/m 2,6 km/h (1 Bft)
30.05.2013 19:24 14,9 C 14,6 C 65 % 1008,6 hPa 0,0 l/m 0 min 0 min 0,0 UV-I 88 W/m 0,0 km/h (0 Bft)
30.05.2013 19:26 14,9 C 14,6 C 65 % 1008,6 hPa 0,0 l/m 0 min 0 min 0,0 UV-I 86 W/m 2,6 km/h (1 Bft)
30.05.2013 19:28 14,9 C 14,6 C 66 % 1008,6 hPa 0,0 l/m 0 min 0 min 0,0 UV-I 83 W/m 0,0 km/h (0 Bft)
30.05.2013 19:30 14,9 C 14,0 C 66 % 1008,6 hPa 0,0 l/m 0 min 0 min 0,0 UV-I 74 W/m 0,0 km/h (0 Bft)
30.05.2013 19:32 14,9 C 14,0 C 67 % 1008,6 hPa 0,0 l/m 0 min 0 min 0,0 UV-I 62 W/m 2,6 km/h (1 Bft)
30.05.2013 19:34 14,9 C 14,0 C 67 % 1008,7 hPa 0,0 l/m 0 min 0 min 0,0 UV-I 54 W/m 5,1 km/h (1 Bft)
30.05.2013 19:36 14,9 C 14,0 C 67 % 1008,7 hPa 0,0 l/m 0 min 0 min 0,0 UV-I 49 W/m 0,0 km/h (0 Bft)
30.05.2013 19:38 14,9 C 14,0 C 68 % 1008,7 hPa 0,0 l/m 0 min 0 min 0,0 UV-I 49 W/m 7,7 km/h (2 Bft)
30.05.2013 19:40 14,9 C 14,0 C 68 % 1008,7 hPa 0,0 l/m 0 min 0 min 0,0 UV-I 49 W/m 7,7 km/h (2 Bft)
30.05.2013 19:42 14,8 C 14,0 C 69 % 1008,7 hPa 0,0 l/m 0 min 0 min 0,0 UV-I 47 W/m 7,7 km/h (2 Bft)
30.05.2013 19:44 14,8 C 14,0 C 70 % 1008,8 hPa 0,0 l/m 0 min 0 min 0,0 UV-I 42 W/m 10,3 km/h (2 Bft)
30.05.2013 19:46 14,8 C 14,0 C 70 % 1008,9 hPa 0,0 l/m 0 min 0 min 0,0 UV-I 40 W/m 7,7 km/h (2 Bft)
30.05.2013 19:48 14,8 C 14,0 C 70 % 1009,0 hPa 0,0 l/m 0 min 0 min 0,0 UV-I 37 W/m 10,3 km/h (2 Bft)
30.05.2013 19:50 14,7 C 13,4 C 70 % 1009,0 hPa 0,0 l/m 0 min 0 min 0,0 UV-I 33 W/m 7,7 km/h (2 Bft)
30.05.2013 19:52 14,7 C 13,4 C 72 % 1009,0 hPa 0,0 l/m 0 min 0 min 0,0 UV-I 33 W/m 2,6 km/h (1 Bft)
30.05.2013 19:54 14,7 C 13,4 C 72 % 1009,1 hPa 0,0 l/m 0 min 0 min 0,0 UV-I 33 W/m 0,0 km/h (0 Bft)
30.05.2013 19:56 14,6 C 13,4 C 72 % 1009,1 hPa 0,0 l/m 0 min 0 min 0,0 UV-I 32 W/m 7,7 km/h (2 Bft)
30.05.2013 19:58 14,6 C 13,4 C 72 % 1009,1 hPa 0,0 l/m 0 min 0 min 0,0 UV-I 32 W/m 7,7 km/h (2 Bft)
30.05.2013 20:00 14,6 C 13,4 C 72 % 1009,0 hPa 0,0 l/m 0 min 0 min 0,0 UV-I 33 W/m 10,3 km/h (2 Bft)
30.05.2013 20:02 14,6 C 13,4 C 72 % 1009,0 hPa 0,0 l/m 0 min 0 min 0,0 UV-I 35 W/m 10,3 km/h (2 Bft)
30.05.2013 20:04 14,6 C 13,4 C 72 % 1009,0 hPa 0,0 l/m 0 min 0 min 0,0 UV-I 39 W/m 7,7 km/h (2 Bft)
30.05.2013 20:06 14,6 C 13,4 C 72 % 1009,1 hPa 0,0 l/m 0 min 0 min 0,0 UV-I 39 W/m 10,3 km/h (2 Bft)
30.05.2013 20:08 14,6 C 13,4 C 72 % 1009,0 hPa 0,0 l/m 0 min 0 min 0,0 UV-I 35 W/m 10,3 km/h (2 Bft)
30.05.2013 20:10 14,6 C 13,4 C 72 % 1009,0 hPa 0,0 l/m 0 min 0 min 0,0 UV-I 33 W/m 7,7 km/h (2 Bft)
30.05.2013 20:12 14,6 C 13,4 C 72 % 1009,0 hPa 0,0 l/m 0 min 0 min 0,0 UV-I 33 W/m 10,3 km/h (2 Bft)
30.05.2013 20:14 14,6 C 13,4 C 72 % 1009,0 hPa 0,0 l/m 0 min 0 min 0,0 UV-I 35 W/m 5,1 km/h (1 Bft)
30.05.2013 20:16 14,6 C 13,4 C 73 % 1009,0 hPa 0,0 l/m 0 min 0 min 0,0 UV-I 37 W/m 5,1 km/h (1 Bft)
30.05.2013 20:18 14,6 C 13,4 C 73 % 1009,0 hPa 0,0 l/m 0 min 0 min 0,0 UV-I 37 W/m 0,0 km/h (0 Bft)
30.05.2013 20:20 14,6 C 13,4 C 73 % 1009,0 hPa 0,0 l/m 0 min 0 min 0,0 UV-I 37 W/m 0,0 km/h (0 Bft)
30.05.2013 20:22 14,6 C 13,4 C 73 % 1009,0 hPa 0,0 l/m 0 min 0 min 0,0 UV-I 40 W/m 5,1 km/h (1 Bft)
30.05.2013 20:24 14,6 C 13,4 C 73 % 1009,1 hPa 0,0 l/m 0 min 0 min 0,0 UV-I 46 W/m 0,0 km/h (0 Bft)
30.05.2013 20:26 14,6 C 13,4 C 73 % 1009,0 hPa 0,0 l/m 0 min 0 min 0,0 UV-I 49 W/m 2,6 km/h (1 Bft)
30.05.2013 20:28 14,6 C 13,4 C 73 % 1009,0 hPa 0,0 l/m 0 min 0 min 0,0 UV-I 53 W/m 10,3 km/h (2 Bft)
30.05.2013 20:30 14,6 C 13,4 C 73 % 1009,0 hPa 0,0 l/m 0 min 0 min 0,0 UV-I 56 W/m 7,7 km/h (2 Bft)
30.05.2013 20:32 14,6 C 13,4 C 73 % 1009,1 hPa 0,0 l/m 0 min 0 min 0,0 UV-I 53 W/m 5,1 km/h (1 Bft)
30.05.2013 20:34 14,6 C 13,4 C 73 % 1009,0 hPa 0,0 l/m 0 min 0 min 0,0 UV-I 51 W/m 5,1 km/h (1 Bft)
30.05.2013 20:36 14,6 C 13,4 C 73 % 1009,0 hPa 0,0 l/m 0 min 0 min 0,0 UV-I 47 W/m 0,0 km/h (0 Bft)
30.05.2013 20:38 14,6 C 13,4 C 73 % 1009,0 hPa 0,0 l/m 0 min 0 min 0,0 UV-I 46 W/m 2,6 km/h (1 Bft)
30.05.2013 20:40 14,6 C 13,4 C 73 % 1009,1 hPa 0,0 l/m 0 min 0 min 0,0 UV-I 46 W/m 0,0 km/h (0 Bft)
30.05.2013 20:42 14,5 C 13,4 C 73 % 1009,2 hPa 0,0 l/m 0 min 0 min 0,0 UV-I 46 W/m 0,0 km/h (0 Bft)
30.05.2013 20:44 14,5 C 13,4 C 73 % 1009,1 hPa 0,0 l/m 0 min 0 min 0,0 UV-I 46 W/m 0,0 km/h (0 Bft)
30.05.2013 20:46 14,5 C 13,4 C 74 % 1009,1 hPa 0,0 l/m 0 min 0 min 0,0 UV-I 46 W/m 0,0 km/h (0 Bft)
30.05.2013 20:48 14,5 C 13,4 C 74 % 1009,1 hPa 0,0 l/m 0 min 0 min 0,0 UV-I 44 W/m 0,0 km/h (0 Bft)
30.05.2013 20:50 14,5 C 13,4 C 74 % 1009,1 hPa 0,0 l/m 0 min 0 min 0,0 UV-I 40 W/m 0,0 km/h (0 Bft)
30.05.2013 20:52 14,5 C 12,9 C 74 % 1009,1 hPa 0,0 l/m 0 min 0 min 0,0 UV-I 37 W/m 0,0 km/h (0 Bft)
30.05.2013 20:54 14,5 C 12,9 C 74 % 1009,0 hPa 0,0 l/m 0 min 0 min 0,0 UV-I 35 W/m 2,6 km/h (1 Bft)
30.05.2013 20:56 14,5 C 12,9 C 74 % 1009,0 hPa 0,0 l/m 0 min 0 min 0,0 UV-I 30 W/m 0,0 km/h (0 Bft)
30.05.2013 20:58 14,5 C 12,9 C 75 % 1009,2 hPa 0,0 l/m 0 min 0 min 0,0 UV-I 28 W/m 0,0 km/h (0 Bft)
30.05.2013 21:00 14,5 C 12,9 C 75 % 1009,2 hPa 0,0 l/m 0 min 0 min 0,0 UV-I 25 W/m 0,0 km/h (0 Bft)
30.05.2013 21:02 14,4 C 12,9 C 75 % 1009,1 hPa 0,0 l/m 0 min 0 min 0,0 UV-I 23 W/m 0,0 km/h (0 Bft)
30.05.2013 21:04 14,4 C 12,9 C 75 % 1009,1 hPa 0,0 l/m 0 min 0 min 0,0 UV-I 21 W/m 0,0 km/h (0 Bft)
30.05.2013 21:06 14,4 C 12,9 C 75 % 1009,0 hPa 0,0 l/m 0 min 0 min 0,0 UV-I 19 W/m 0,0 km/h (0 Bft)
30.05.2013 21:08 14,4 C 12,9 C 75 % 1009,1 hPa 0,0 l/m 0 min 0 min 0,0 UV-I 18 W/m 0,0 km/h (0 Bft)
30.05.2013 21:10 14,4 C 12,3 C 75 % 1009,1 hPa 0,0 l/m 0 min 0 min 0,0 UV-I 18 W/m 0,0 km/h (0 Bft)
30.05.2013 21:12 14,4 C 12,3 C 75 % 1009,1 hPa 0,0 l/m 0 min 0 min 0,0 UV-I 16 W/m 0,0 km/h (0 Bft)
30.05.2013 21:14 14,3 C 12,3 C 76 % 1009,1 hPa 0,0 l/m 0 min 0 min 0,0 UV-I 16 W/m 0,0 km/h (0 Bft)
30.05.2013 21:16 14,3 C 12,3 C 76 % 1009,2 hPa 0,0 l/m 0 min 0 min 0,0 UV-I 14 W/m 0,0 km/h (0 Bft)
30.05.2013 21:18 14,3 C 12,3 C 76 % 1009,2 hPa 0,0 l/m 0 min 0 min 0,0 UV-I 12 W/m 0,0 km/h (0 Bft)
30.05.2013 21:20 14,3 C 12,3 C 76 % 1009,1 hPa 0,0 l/m 0 min 0 min 0,0 UV-I 11 W/m 0,0 km/h (0 Bft)
30.05.2013 21:22 14,3 C 12,3 C 76 % 1009,2 hPa 0,0 l/m 0 min 0 min 0,0 UV-I 11 W/m 0,0 km/h (0 Bft)
30.05.2013 21:24 14,3 C 12,3 C 76 % 1009,2 hPa 0,0 l/m 0 min 0 min 0,0 UV-I 9 W/m 0,0 km/h (0 Bft)
30.05.2013 21:26 14,2 C 11,8 C 77 % 1009,2 hPa 0,0 l/m 0 min 0 min 0,0 UV-I 9 W/m 0,0 km/h (0 Bft)
30.05.2013 21:28 14,2 C 11,8 C 77 % 1009,2 hPa 0,0 l/m 0 min 0 min 0,0 UV-I 7 W/m 0,0 km/h (0 Bft)
30.05.2013 21:30 14,2 C 11,8 C 77 % 1009,2 hPa 0,0 l/m 0 min 0 min 0,0 UV-I 5 W/m 0,0 km/h (0 Bft)
30.05.2013 21:32 14,1 C 11,8 C 77 % 1009,3 hPa 0,0 l/m 0 min 0 min 0,0 UV-I 5 W/m 0,0 km/h (0 Bft)
30.05.2013 21:34 14,1 C 11,8 C 77 % 1009,3 hPa 0,0 l/m 0 min 0 min 0,0 UV-I 0 W/m 0,0 km/h (0 Bft)
30.05.2013 21:36 14,1 C 11,8 C 77 % 1009,4 hPa 0,0 l/m 0 min 0 min 0,0 UV-I 0 W/m 0,0 km/h (0 Bft)
30.05.2013 21:38 14,0 C 11,8 C 77 % 1009,3 hPa 0,0 l/m 0 min 0 min 0,0 UV-I 5 W/m 0,0 km/h (0 Bft)
30.05.2013 21:40 14,0 C 11,8 C 78 % 1009,3 hPa 0,0 l/m 0 min 0 min 0,0 UV-I 0 W/m 0,0 km/h (0 Bft)
30.05.2013 21:42 14,0 C 11,8 C 78 % 1009,3 hPa 0,0 l/m 0 min 0 min 0,0 UV-I 0 W/m 0,0 km/h (0 Bft)
30.05.2013 21:44 14,0 C 11,2 C 78 % 1009,3 hPa 0,0 l/m 0 min 0 min 0,0 UV-I 0 W/m 0,0 km/h (0 Bft)
30.05.2013 21:46 14,0 C 11,2 C 78 % 1009,4 hPa 0,0 l/m 0 min 0 min 0,0 UV-I 5 W/m 0,0 km/h (0 Bft)
30.05.2013 21:48 14,0 C 11,2 C 78 % 1009,4 hPa 0,0 l/m 0 min 0 min 0,0 UV-I 5 W/m 0,0 km/h (0 Bft)
30.05.2013 21:50 14,0 C 11,2 C 78 % 1009,4 hPa 0,0 l/m 0 min 0 min 0,0 UV-I 5 W/m 0,0 km/h (0 Bft)
30.05.2013 21:52 13,9 C 11,2 C 78 % 1009,5 hPa 0,0 l/m 0 min 0 min 0,0 UV-I 0 W/m 0,0 km/h (0 Bft)
30.05.2013 21:54 13,9 C 10,7 C 78 % 1009,4 hPa 0,0 l/m 0 min 0 min 0,0 UV-I 0 W/m 0,0 km/h (0 Bft)
30.05.2013 21:56 13,8 C 10,7 C 78 % 1009,4 hPa 0,0 l/m 0 min 0 min 0,0 UV-I 0 W/m 0,0 km/h (0 Bft)
30.05.2013 21:58 13,8 C 10,7 C 78 % 1009,4 hPa 0,0 l/m 0 min 0 min 0,0 UV-I 0 W/m 0,0 km/h (0 Bft)
30.05.2013 22:00 13,7 C 10,7 C 78 % 1009,4 hPa 0,0 l/m 0 min 0 min 0,0 UV-I 0 W/m 0,0 km/h (0 Bft)
30.05.2013 22:02 13,7 C 10,7 C 79 % 1009,4 hPa 0,0 l/m 0 min 0 min 0,0 UV-I 0 W/m 0,0 km/h (0 Bft)
30.05.2013 22:04 13,6 C 10,7 C 79 % 1009,4 hPa 0,0 l/m 0 min 0 min 0,0 UV-I 0 W/m 0,0 km/h (0 Bft)
30.05.2013 22:06 13,6 C 10,7 C 79 % 1009,4 hPa 0,0 l/m 0 min 0 min 0,0 UV-I 0 W/m 0,0 km/h (0 Bft)
30.05.2013 22:08 13,6 C 10,1 C 79 % 1009,4 hPa 0,0 l/m 0 min 0 min 0,0 UV-I 0 W/m 0,0 km/h (0 Bft)
30.05.2013 22:10 13,4 C 10,1 C 79 % 1009,4 hPa 0,0 l/m 0 min 0 min 0,0 UV-I 0 W/m 0,0 km/h (0 Bft)
30.05.2013 22:12 13,4 C 10,1 C 80 % 1009,3 hPa 0,0 l/m 0 min 0 min 0,0 UV-I 0 W/m 0,0 km/h (0 Bft)
30.05.2013 22:14 13,4 C 10,1 C 80 % 1009,4 hPa 0,0 l/m 0 min 0 min 0,0 UV-I 0 W/m 0,0 km/h (0 Bft)
30.05.2013 22:16 13,3 C 10,1 C 80 % 1009,4 hPa 0,0 l/m 0 min 0 min 0,0 UV-I 0 W/m 0,0 km/h (0 Bft)
30.05.2013 22:18 13,3 C 10,1 C 80 % 1009,5 hPa 0,0 l/m 0 min 0 min 0,0 UV-I 0 W/m 0,0 km/h (0 Bft)
30.05.2013 22:20 13,2 C 10,1 C 80 % 1009,5 hPa 0,0 l/m 0 min 0 min 0,0 UV-I 0 W/m 0,0 km/h (0 Bft)
30.05.2013 22:22 13,2 C 10,1 C 81 % 1009,5 hPa 0,0 l/m 0 min 0 min 0,0 UV-I 0 W/m 0,0 km/h (0 Bft)
30.05.2013 22:24 13,1 C 10,1 C 81 % 1009,5 hPa 0,0 l/m 0 min 0 min 0,0 UV-I 0 W/m 0,0 km/h (0 Bft)
30.05.2013 22:26 13,1 C 10,1 C 81 % 1009,6 hPa 0,0 l/m 0 min 0 min 0,0 UV-I 0 W/m 0,0 km/h (0 Bft)
30.05.2013 22:28 13,0 C 9,6 C 81 % 1009,5 hPa 0,0 l/m 0 min 0 min 0,0 UV-I 0 W/m 0,0 km/h (0 Bft)
30.05.2013 22:30 12,9 C 9,6 C 81 % 1009,6 hPa 0,0 l/m 0 min 0 min 0,0 UV-I 0 W/m 0,0 km/h (0 Bft)
30.05.2013 22:32 12,9 C 9,6 C 82 % 1009,6 hPa 0,0 l/m 0 min 0 min 0,0 UV-I 0 W/m 0,0 km/h (0 Bft)
30.05.2013 22:34 12,8 C 9,6 C 82 % 1009,5 hPa 0,0 l/m 0 min 0 min 0,0 UV-I 0 W/m 0,0 km/h (0 Bft)
30.05.2013 22:36 12,8 C 9,6 C 82 % 1009,5 hPa 0,0 l/m 0 min 0 min 0,0 UV-I 0 W/m 0,0 km/h (0 Bft)
30.05.2013 22:38 12,7 C 9,6 C 82 % 1009,5 hPa 0,0 l/m 0 min 0 min 0,0 UV-I 0 W/m 0,0 km/h (0 Bft)
30.05.2013 22:40 12,7 C 9,6 C 82 % 1009,5 hPa 0,0 l/m 0 min 0 min 0,0 UV-I 0 W/m 0,0 km/h (0 Bft)
30.05.2013 22:42 12,6 C 9,6 C 82 % 1009,5 hPa 0,0 l/m 0 min 0 min 0,0 UV-I 0 W/m 0,0 km/h (0 Bft)
30.05.2013 22:44 12,6 C 9,6 C 82 % 1009,4 hPa 0,0 l/m 0 min 0 min 0,0 UV-I 0 W/m 0,0 km/h (0 Bft)
30.05.2013 22:46 12,5 C 9,6 C 83 % 1009,4 hPa 0,0 l/m 0 min 0 min 0,0 UV-I 0 W/m 0,0 km/h (0 Bft)
30.05.2013 22:48 12,4 C 9,6 C 83 % 1009,3 hPa 0,0 l/m 0 min 0 min 0,0 UV-I 0 W/m 0,0 km/h (0 Bft)
30.05.2013 22:50 12,4 C 9,6 C 83 % 1009,3 hPa 0,0 l/m 0 min 0 min 0,0 UV-I 0 W/m 0,0 km/h (0 Bft)
30.05.2013 22:52 12,4 C 9,6 C 83 % 1009,4 hPa 0,0 l/m 0 min 0 min 0,0 UV-I 0 W/m 0,0 km/h (0 Bft)
30.05.2013 22:54 12,3 C 9,6 C 83 % 1009,3 hPa 0,0 l/m 0 min 0 min 0,0 UV-I 0 W/m 0,0 km/h (0 Bft)
30.05.2013 22:56 12,3 C 9,6 C 83 % 1009,4 hPa 0,0 l/m 0 min 0 min 0,0 UV-I 0 W/m 0,0 km/h (0 Bft)
30.05.2013 22:58 12,2 C 9,6 C 83 % 1009,4 hPa 0,0 l/m 0 min 0 min 0,0 UV-I 0 W/m 0,0 km/h (0 Bft)
30.05.2013 23:00 12,2 C 9,0 C 83 % 1009,4 hPa 0,0 l/m 0 min 0 min 0,0 UV-I 0 W/m 0,0 km/h (0 Bft)
30.05.2013 23:02 12,2 C 9,6 C 83 % 1009,4 hPa 0,0 l/m 0 min 0 min 0,0 UV-I 0 W/m 0,0 km/h (0 Bft)
30.05.2013 23:04 12,1 C 9,0 C 83 % 1009,4 hPa 0,0 l/m 0 min 0 min 0,0 UV-I 0 W/m 0,0 km/h (0 Bft)
30.05.2013 23:06 12,1 C 9,0 C 83 % 1009,4 hPa 0,0 l/m 0 min 0 min 0,0 UV-I 0 W/m 0,0 km/h (0 Bft)
30.05.2013 23:08 12,0 C 9,0 C 83 % 1009,3 hPa 0,0 l/m 0 min 0 min 0,0 UV-I 0 W/m 0,0 km/h (0 Bft)
30.05.2013 23:10 12,0 C 9,0 C 83 % 1009,4 hPa 0,0 l/m 0 min 0 min 0,0 UV-I 0 W/m 0,0 km/h (0 Bft)
30.05.2013 23:12 11,9 C 9,0 C 83 % 1009,4 hPa 0,0 l/m 0 min 0 min 0,0 UV-I 0 W/m 0,0 km/h (0 Bft)
30.05.2013 23:14 11,9 C 9,0 C 84 % 1009,4 hPa 0,0 l/m 0 min 0 min 0,0 UV-I 0 W/m 0,0 km/h (0 Bft)
30.05.2013 23:16 11,8 C 9,0 C 84 % 1009,5 hPa 0,0 l/m 0 min 0 min 0,0 UV-I 0 W/m 0,0 km/h (0 Bft)
30.05.2013 23:18 11,8 C 9,0 C 84 % 1009,4 hPa 0,0 l/m 0 min 0 min 0,0 UV-I 0 W/m 0,0 km/h (0 Bft)
30.05.2013 23:20 11,8 C 9,0 C 84 % 1009,4 hPa 0,0 l/m 0 min 0 min 0,0 UV-I 0 W/m 0,0 km/h (0 Bft)
30.05.2013 23:22 11,8 C 9,0 C 84 % 1009,4 hPa 0,0 l/m 0 min 0 min 0,0 UV-I 0 W/m 0,0 km/h (0 Bft)
30.05.2013 23:24 11,7 C 9,0 C 84 % 1009,4 hPa 0,0 l/m 0 min 0 min 0,0 UV-I 0 W/m 0,0 km/h (0 Bft)
30.05.2013 23:26 11,7 C 9,0 C 84 % 1009,5 hPa 0,0 l/m 0 min 0 min 0,0 UV-I 0 W/m 0,0 km/h (0 Bft)
30.05.2013 23:28 11,7 C 9,0 C 84 % 1009,4 hPa 0,0 l/m 0 min 0 min 0,0 UV-I 0 W/m 0,0 km/h (0 Bft)
30.05.2013 23:30 11,6 C 9,0 C 84 % 1009,5 hPa 0,0 l/m 0 min 0 min 0,0 UV-I 0 W/m 0,0 km/h (0 Bft)
30.05.2013 23:32 11,6 C 9,0 C 84 % 1009,4 hPa 0,0 l/m 0 min 0 min 0,0 UV-I 0 W/m 0,0 km/h (0 Bft)
30.05.2013 23:34 11,6 C 9,0 C 84 % 1009,4 hPa 0,0 l/m 0 min 0 min 0,0 UV-I 0 W/m 0,0 km/h (0 Bft)
30.05.2013 23:36 11,5 C 9,0 C 84 % 1009,4 hPa 0,0 l/m 0 min 0 min 0,0 UV-I 0 W/m 0,0 km/h (0 Bft)
30.05.2013 23:38 11,5 C 9,0 C 84 % 1009,4 hPa 0,0 l/m 0 min 0 min 0,0 UV-I 0 W/m 0,0 km/h (0 Bft)
30.05.2013 23:40 11,4 C 9,0 C 85 % 1009,4 hPa 0,0 l/m 0 min 0 min 0,0 UV-I 0 W/m 0,0 km/h (0 Bft)
30.05.2013 23:42 11,4 C 9,0 C 85 % 1009,3 hPa 0,0 l/m 0 min 0 min 0,0 UV-I 0 W/m 0,0 km/h (0 Bft)
30.05.2013 23:44 11,4 C 9,0 C 85 % 1009,4 hPa 0,0 l/m 0 min 0 min 0,0 UV-I 0 W/m 0,0 km/h (0 Bft)
30.05.2013 23:46 11,4 C 9,0 C 85 % 1009,4 hPa 0,0 l/m 0 min 0 min 0,0 UV-I 0 W/m 0,0 km/h (0 Bft)
30.05.2013 23:48 11,3 C 9,0 C 85 % 1009,4 hPa 0,0 l/m 0 min 0 min 0,0 UV-I 0 W/m 0,0 km/h (0 Bft)
30.05.2013 23:50 11,3 C 9,0 C 85 % 1009,4 hPa 0,0 l/m 0 min 0 min 0,0 UV-I 0 W/m 0,0 km/h (0 Bft)
30.05.2013 23:52 11,3 C 9,0 C 85 % 1009,4 hPa 0,0 l/m 0 min 0 min 0,0 UV-I 0 W/m 0,0 km/h (0 Bft)
30.05.2013 23:54 11,3 C 9,0 C 85 % 1009,3 hPa 0,0 l/m 0 min 0 min 0,0 UV-I 0 W/m 0,0 km/h (0 Bft)
30.05.2013 23:56 11,2 C 9,0 C 85 % 1009,4 hPa 0,0 l/m 0 min 0 min 0,0 UV-I 0 W/m 0,0 km/h (0 Bft)
30.05.2013 23:58 11,2 C 9,0 C 85 % 1009,4 hPa 0,0 l/m 0 min 0 min 0,0 UV-I 0 W/m 0,0 km/h (0 Bft)
_ Min-Zeit 05:18 02:24 18:42 01:30 - - - - - 00:00
Minimum _ 8,6 C 7,9 C 63 % 1003,7 hPa - - - - - 0,0 km/h (0 Bft)
_ Max-Zeit 14:52 12:24 00:00 22:26 00:10 08:06 00:00 12:20 12:22 12:30
Maximum _ 16,6 C 24,0 C 98 % 1009,6 hPa 0,2 l/m 2 min 2 min 5,1 UV-I 1192 W/m 20,6 km/h
O-SO (4 Bft)
Durchschnitt _ 12,2 C 12,1 C 84 % 1006,8 hPa #1,2 l/m #3:48 h #2:24 h 1,6 UV-I 271 W/m 4,9 km/h (1 Bft)
© 2013 W. Hausmann